<?xml version="1.0" encoding="UTF-8" standalone="no" ?>
<gpx xmlns="http://www.topografix.com/GPX/1/1" xmlns:xsi="http://www.w3.org/2001/XMLSchema-instance" xsi:schemaLocation="http://www.topografix.com/GPX/1/1 http://www.topografix.com/GPX/1/1/gpx.xsd" version="1.1" creator="VisuGPX - https://www.visugpx.com">
  <metadata>
    <name>Descente aux Allues</name>
    <desc><![CDATA[Descente aux Allues]]></desc>
  </metadata>
  <trk>
    <name><![CDATA[18022013apresmidi]]></name>
    <trkseg>
      <trkpt lat="45.39891" lon="6.56694">
        <ele>1524.703931</ele>
        <time>2013-02-18T12:24:47Z</time>
      </trkpt>
      <trkpt lat="45.39893" lon="6.56686">
        <ele>1522.129442</ele>
        <time>2013-02-18T12:24:52Z</time>
      </trkpt>
      <trkpt lat="45.39894" lon="6.56679">
        <ele>1522.359648</ele>
        <time>2013-02-18T12:24:57Z</time>
      </trkpt>
      <trkpt lat="45.39888" lon="6.56676">
        <ele>1522.126781</ele>
        <time>2013-02-18T12:25:02Z</time>
      </trkpt>
      <trkpt lat="45.39882" lon="6.56675">
        <ele>1524.873667</ele>
        <time>2013-02-18T12:25:07Z</time>
      </trkpt>
      <trkpt lat="45.39875" lon="6.56674">
        <ele>1525.498978</ele>
        <time>2013-02-18T12:25:12Z</time>
      </trkpt>
      <trkpt lat="45.39868" lon="6.56672">
        <ele>1521.815282</ele>
        <time>2013-02-18T12:25:17Z</time>
      </trkpt>
      <trkpt lat="45.39861" lon="6.56671">
        <ele>1523.850184</ele>
        <time>2013-02-18T12:25:22Z</time>
      </trkpt>
      <trkpt lat="45.39857" lon="6.56667">
        <ele>1524.263512</ele>
        <time>2013-02-18T12:25:27Z</time>
      </trkpt>
      <trkpt lat="45.39852" lon="6.56661">
        <ele>1519.655822</ele>
        <time>2013-02-18T12:25:32Z</time>
      </trkpt>
      <trkpt lat="45.39849" lon="6.56655">
        <ele>1518.513435</ele>
        <time>2013-02-18T12:25:37Z</time>
      </trkpt>
      <trkpt lat="45.39845" lon="6.56647">
        <ele>1511.638024</ele>
        <time>2013-02-18T12:25:42Z</time>
      </trkpt>
      <trkpt lat="45.39843" lon="6.56645">
        <ele>1512.938417</ele>
        <time>2013-02-18T12:25:47Z</time>
      </trkpt>
      <trkpt lat="45.39839" lon="6.56645">
        <ele>1514.304668</ele>
        <time>2013-02-18T12:25:52Z</time>
      </trkpt>
      <trkpt lat="45.39833" lon="6.56641">
        <ele>1517.603029</ele>
        <time>2013-02-18T12:25:57Z</time>
      </trkpt>
      <trkpt lat="45.39825" lon="6.5664">
        <ele>1519.623544</ele>
        <time>2013-02-18T12:26:02Z</time>
      </trkpt>
      <trkpt lat="45.39816" lon="6.56642">
        <ele>1525.401679</ele>
        <time>2013-02-18T12:26:07Z</time>
      </trkpt>
      <trkpt lat="45.39811" lon="6.56638">
        <ele>1523.69348</ele>
        <time>2013-02-18T12:26:12Z</time>
      </trkpt>
      <trkpt lat="45.39805" lon="6.56634">
        <ele>1523.38043</ele>
        <time>2013-02-18T12:26:17Z</time>
      </trkpt>
      <trkpt lat="45.39799" lon="6.56632">
        <ele>1528.946568</ele>
        <time>2013-02-18T12:26:22Z</time>
      </trkpt>
      <trkpt lat="45.39793" lon="6.56632">
        <ele>1529.586423</ele>
        <time>2013-02-18T12:26:27Z</time>
      </trkpt>
      <trkpt lat="45.39788" lon="6.56632">
        <ele>1529.609008</ele>
        <time>2013-02-18T12:26:32Z</time>
      </trkpt>
      <trkpt lat="45.39784" lon="6.56632">
        <ele>1525.337009</ele>
        <time>2013-02-18T12:26:37Z</time>
      </trkpt>
      <trkpt lat="45.39775" lon="6.56631">
        <ele>1518.107872</ele>
        <time>2013-02-18T12:26:42Z</time>
      </trkpt>
      <trkpt lat="45.3977" lon="6.5663">
        <ele>1522.278897</ele>
        <time>2013-02-18T12:26:47Z</time>
      </trkpt>
      <trkpt lat="45.39764" lon="6.56629">
        <ele>1524.328357</ele>
        <time>2013-02-18T12:26:52Z</time>
      </trkpt>
      <trkpt lat="45.39755" lon="6.56629">
        <ele>1522.898139</ele>
        <time>2013-02-18T12:26:57Z</time>
      </trkpt>
      <trkpt lat="45.39753" lon="6.56633">
        <ele>1523.110191</ele>
        <time>2013-02-18T12:27:03Z</time>
      </trkpt>
      <trkpt lat="45.39748" lon="6.56639">
        <ele>1521.346856</ele>
        <time>2013-02-18T12:27:08Z</time>
      </trkpt>
      <trkpt lat="45.39746" lon="6.56641">
        <ele>1520.78104</ele>
        <time>2013-02-18T12:27:15Z</time>
      </trkpt>
      <trkpt lat="45.39746" lon="6.56645">
        <ele>1523.84108</ele>
        <time>2013-02-18T12:27:42Z</time>
      </trkpt>
      <trkpt lat="45.39729" lon="6.56645">
        <ele>1522.40471</ele>
        <time>2013-02-18T12:51:55Z</time>
      </trkpt>
      <trkpt lat="45.39726" lon="6.56646">
        <ele>1523.153764</ele>
        <time>2013-02-18T12:52:05Z</time>
      </trkpt>
      <trkpt lat="45.39717" lon="6.56648">
        <ele>1521.803913</ele>
        <time>2013-02-18T12:52:10Z</time>
      </trkpt>
      <trkpt lat="45.3971" lon="6.56648">
        <ele>1521.812167</ele>
        <time>2013-02-18T12:52:15Z</time>
      </trkpt>
      <trkpt lat="45.39704" lon="6.56644">
        <ele>1524.318376</ele>
        <time>2013-02-18T12:52:20Z</time>
      </trkpt>
      <trkpt lat="45.39701" lon="6.56634">
        <ele>1525.122641</ele>
        <time>2013-02-18T12:52:25Z</time>
      </trkpt>
      <trkpt lat="45.39703" lon="6.56625">
        <ele>1520.26595</ele>
        <time>2013-02-18T12:52:30Z</time>
      </trkpt>
      <trkpt lat="45.39708" lon="6.56618">
        <ele>1517.022653</ele>
        <time>2013-02-18T12:52:35Z</time>
      </trkpt>
      <trkpt lat="45.39712" lon="6.56613">
        <ele>1518.154268</ele>
        <time>2013-02-18T12:52:40Z</time>
      </trkpt>
      <trkpt lat="45.39719" lon="6.56606">
        <ele>1512.025958</ele>
        <time>2013-02-18T12:52:45Z</time>
      </trkpt>
      <trkpt lat="45.39726" lon="6.56604">
        <ele>1509.118277</ele>
        <time>2013-02-18T12:52:50Z</time>
      </trkpt>
      <trkpt lat="45.3973" lon="6.56603">
        <ele>1510.490793</ele>
        <time>2013-02-18T12:52:55Z</time>
      </trkpt>
      <trkpt lat="45.3973" lon="6.566">
        <ele>1506.733185</ele>
        <time>2013-02-18T12:53:00Z</time>
      </trkpt>
      <trkpt lat="45.39732" lon="6.56598">
        <ele>1510.198445</ele>
        <time>2013-02-18T12:53:05Z</time>
      </trkpt>
      <trkpt lat="45.39737" lon="6.56593">
        <ele>1514.861228</ele>
        <time>2013-02-18T12:53:10Z</time>
      </trkpt>
      <trkpt lat="45.39741" lon="6.56595">
        <ele>1514.984765</ele>
        <time>2013-02-18T12:53:15Z</time>
      </trkpt>
      <trkpt lat="45.39744" lon="6.56595">
        <ele>1515.72559</ele>
        <time>2013-02-18T12:53:20Z</time>
      </trkpt>
      <trkpt lat="45.39747" lon="6.56595">
        <ele>1517.875991</ele>
        <time>2013-02-18T12:53:25Z</time>
      </trkpt>
      <trkpt lat="45.39753" lon="6.56589">
        <ele>1523.170494</ele>
        <time>2013-02-18T12:53:30Z</time>
      </trkpt>
      <trkpt lat="45.39757" lon="6.56585">
        <ele>1525.792022</ele>
        <time>2013-02-18T12:53:35Z</time>
      </trkpt>
      <trkpt lat="45.39764" lon="6.56582">
        <ele>1527.047241</ele>
        <time>2013-02-18T12:53:40Z</time>
      </trkpt>
      <trkpt lat="45.39773" lon="6.5658">
        <ele>1524.785751</ele>
        <time>2013-02-18T12:53:45Z</time>
      </trkpt>
      <trkpt lat="45.39782" lon="6.56581">
        <ele>1514.241839</ele>
        <time>2013-02-18T12:53:50Z</time>
      </trkpt>
      <trkpt lat="45.39791" lon="6.5658">
        <ele>1513.550532</ele>
        <time>2013-02-18T12:53:55Z</time>
      </trkpt>
      <trkpt lat="45.39797" lon="6.56576">
        <ele>1509.072792</ele>
        <time>2013-02-18T12:54:00Z</time>
      </trkpt>
      <trkpt lat="45.39804" lon="6.56578">
        <ele>1509.22523</ele>
        <time>2013-02-18T12:54:05Z</time>
      </trkpt>
      <trkpt lat="45.39813" lon="6.56582">
        <ele>1510.198833</ele>
        <time>2013-02-18T12:54:10Z</time>
      </trkpt>
      <trkpt lat="45.39819" lon="6.56579">
        <ele>1507.908554</ele>
        <time>2013-02-18T12:54:15Z</time>
      </trkpt>
      <trkpt lat="45.39821" lon="6.56576">
        <ele>1505.574977</ele>
        <time>2013-02-18T12:54:20Z</time>
      </trkpt>
      <trkpt lat="45.39827" lon="6.56573">
        <ele>1504.694283</ele>
        <time>2013-02-18T12:54:25Z</time>
      </trkpt>
      <trkpt lat="45.39832" lon="6.56573">
        <ele>1501.932882</ele>
        <time>2013-02-18T12:54:30Z</time>
      </trkpt>
      <trkpt lat="45.39832" lon="6.56571">
        <ele>1504.591453</ele>
        <time>2013-02-18T12:54:35Z</time>
      </trkpt>
      <trkpt lat="45.39838" lon="6.56571">
        <ele>1505.36121</ele>
        <time>2013-02-18T12:54:40Z</time>
      </trkpt>
      <trkpt lat="45.39845" lon="6.5657">
        <ele>1510.293848</ele>
        <time>2013-02-18T12:54:45Z</time>
      </trkpt>
      <trkpt lat="45.39849" lon="6.56572">
        <ele>1506.900745</ele>
        <time>2013-02-18T12:54:50Z</time>
      </trkpt>
      <trkpt lat="45.3986" lon="6.56572">
        <ele>1506.935999</ele>
        <time>2013-02-18T12:54:55Z</time>
      </trkpt>
      <trkpt lat="45.39869" lon="6.56571">
        <ele>1508.286113</ele>
        <time>2013-02-18T12:55:00Z</time>
      </trkpt>
      <trkpt lat="45.39877" lon="6.5657">
        <ele>1507.594945</ele>
        <time>2013-02-18T12:55:05Z</time>
      </trkpt>
      <trkpt lat="45.39884" lon="6.56572">
        <ele>1504.150482</ele>
        <time>2013-02-18T12:55:10Z</time>
      </trkpt>
      <trkpt lat="45.39892" lon="6.56569">
        <ele>1510.42692</ele>
        <time>2013-02-18T12:55:15Z</time>
      </trkpt>
      <trkpt lat="45.39897" lon="6.56569">
        <ele>1504.766149</ele>
        <time>2013-02-18T12:55:20Z</time>
      </trkpt>
      <trkpt lat="45.39906" lon="6.56572">
        <ele>1496.490175</ele>
        <time>2013-02-18T12:55:25Z</time>
      </trkpt>
      <trkpt lat="45.39913" lon="6.56572">
        <ele>1494.375038</ele>
        <time>2013-02-18T12:55:30Z</time>
      </trkpt>
      <trkpt lat="45.39919" lon="6.56575">
        <ele>1498.124607</ele>
        <time>2013-02-18T12:55:35Z</time>
      </trkpt>
      <trkpt lat="45.39926" lon="6.56573">
        <ele>1498.748346</ele>
        <time>2013-02-18T12:55:40Z</time>
      </trkpt>
      <trkpt lat="45.39934" lon="6.5657">
        <ele>1500.003827</ele>
        <time>2013-02-18T12:55:45Z</time>
      </trkpt>
      <trkpt lat="45.39941" lon="6.56568">
        <ele>1502.037161</ele>
        <time>2013-02-18T12:55:50Z</time>
      </trkpt>
      <trkpt lat="45.39945" lon="6.56564">
        <ele>1498.940263</ele>
        <time>2013-02-18T12:55:55Z</time>
      </trkpt>
      <trkpt lat="45.39948" lon="6.56563">
        <ele>1499.600927</ele>
        <time>2013-02-18T12:56:00Z</time>
      </trkpt>
      <trkpt lat="45.39954" lon="6.56563">
        <ele>1500.370813</ele>
        <time>2013-02-18T12:56:05Z</time>
      </trkpt>
      <trkpt lat="45.39961" lon="6.56559">
        <ele>1498.014885</ele>
        <time>2013-02-18T12:56:10Z</time>
      </trkpt>
      <trkpt lat="45.39969" lon="6.56559">
        <ele>1499.430992</ele>
        <time>2013-02-18T12:56:15Z</time>
      </trkpt>
      <trkpt lat="45.39976" lon="6.56557">
        <ele>1500.054803</ele>
        <time>2013-02-18T12:56:20Z</time>
      </trkpt>
      <trkpt lat="45.39982" lon="6.56556">
        <ele>1500.046885</ele>
        <time>2013-02-18T12:56:25Z</time>
      </trkpt>
      <trkpt lat="45.39992" lon="6.56553">
        <ele>1497.007927</ele>
        <time>2013-02-18T12:56:30Z</time>
      </trkpt>
      <trkpt lat="45.4" lon="6.56549">
        <ele>1492.544934</ele>
        <time>2013-02-18T12:56:35Z</time>
      </trkpt>
      <trkpt lat="45.40007" lon="6.56549">
        <ele>1489.732378</ele>
        <time>2013-02-18T12:56:40Z</time>
      </trkpt>
      <trkpt lat="45.40012" lon="6.56544">
        <ele>1494.395437</ele>
        <time>2013-02-18T12:56:45Z</time>
      </trkpt>
      <trkpt lat="45.40021" lon="6.56543">
        <ele>1494.41653</ele>
        <time>2013-02-18T12:56:50Z</time>
      </trkpt>
      <trkpt lat="45.40027" lon="6.56543">
        <ele>1493.696639</ele>
        <time>2013-02-18T12:56:55Z</time>
      </trkpt>
      <trkpt lat="45.40029" lon="6.5654">
        <ele>1490.665616</ele>
        <time>2013-02-18T12:57:00Z</time>
      </trkpt>
      <trkpt lat="45.40035" lon="6.56535">
        <ele>1490.402434</ele>
        <time>2013-02-18T12:57:05Z</time>
      </trkpt>
      <trkpt lat="45.40041" lon="6.56532">
        <ele>1490.234028</ele>
        <time>2013-02-18T12:57:10Z</time>
      </trkpt>
      <trkpt lat="45.40049" lon="6.56528">
        <ele>1487.180694</ele>
        <time>2013-02-18T12:57:15Z</time>
      </trkpt>
      <trkpt lat="45.40058" lon="6.56525">
        <ele>1486.329259</ele>
        <time>2013-02-18T12:57:20Z</time>
      </trkpt>
      <trkpt lat="45.40064" lon="6.56522">
        <ele>1487.57046</ele>
        <time>2013-02-18T12:57:25Z</time>
      </trkpt>
      <trkpt lat="45.40069" lon="6.56518">
        <ele>1486.595288</ele>
        <time>2013-02-18T12:57:30Z</time>
      </trkpt>
      <trkpt lat="45.40076" lon="6.56515">
        <ele>1486.426931</ele>
        <time>2013-02-18T12:57:35Z</time>
      </trkpt>
      <trkpt lat="45.4008" lon="6.56509">
        <ele>1486.781069</ele>
        <time>2013-02-18T12:57:40Z</time>
      </trkpt>
      <trkpt lat="45.40086" lon="6.56506">
        <ele>1486.59823</ele>
        <time>2013-02-18T12:57:45Z</time>
      </trkpt>
      <trkpt lat="45.40092" lon="6.56501">
        <ele>1484.940047</ele>
        <time>2013-02-18T12:57:50Z</time>
      </trkpt>
      <trkpt lat="45.401" lon="6.56494">
        <ele>1480.236402</ele>
        <time>2013-02-18T12:57:55Z</time>
      </trkpt>
      <trkpt lat="45.40105" lon="6.56489">
        <ele>1479.958811</ele>
        <time>2013-02-18T12:58:00Z</time>
      </trkpt>
      <trkpt lat="45.40111" lon="6.56483">
        <ele>1476.730537</ele>
        <time>2013-02-18T12:58:05Z</time>
      </trkpt>
      <trkpt lat="45.40116" lon="6.56478">
        <ele>1477.164999</ele>
        <time>2013-02-18T12:58:10Z</time>
      </trkpt>
      <trkpt lat="45.40123" lon="6.56474">
        <ele>1475.506867</ele>
        <time>2013-02-18T12:58:15Z</time>
      </trkpt>
      <trkpt lat="45.40128" lon="6.56473">
        <ele>1474.075052</ele>
        <time>2013-02-18T12:58:20Z</time>
      </trkpt>
      <trkpt lat="45.40131" lon="6.56469">
        <ele>1478.80402</ele>
        <time>2013-02-18T12:58:25Z</time>
      </trkpt>
      <trkpt lat="45.40136" lon="6.56465">
        <ele>1477.828932</ele>
        <time>2013-02-18T12:58:30Z</time>
      </trkpt>
      <trkpt lat="45.40141" lon="6.56463">
        <ele>1483.445005</ele>
        <time>2013-02-18T12:58:35Z</time>
      </trkpt>
      <trkpt lat="45.40147" lon="6.5646">
        <ele>1483.974287</ele>
        <time>2013-02-18T12:58:40Z</time>
      </trkpt>
      <trkpt lat="45.40152" lon="6.56458">
        <ele>1485.281376</ele>
        <time>2013-02-18T12:58:45Z</time>
      </trkpt>
      <trkpt lat="45.40159" lon="6.56458">
        <ele>1484.576153</ele>
        <time>2013-02-18T12:58:50Z</time>
      </trkpt>
      <trkpt lat="45.40169" lon="6.56457">
        <ele>1478.181406</ele>
        <time>2013-02-18T12:58:55Z</time>
      </trkpt>
      <trkpt lat="45.40175" lon="6.56456">
        <ele>1478.173733</ele>
        <time>2013-02-18T12:59:00Z</time>
      </trkpt>
      <trkpt lat="45.40182" lon="6.56457">
        <ele>1482.475062</ele>
        <time>2013-02-18T12:59:05Z</time>
      </trkpt>
      <trkpt lat="45.40189" lon="6.56458">
        <ele>1479.743048</ele>
        <time>2013-02-18T12:59:10Z</time>
      </trkpt>
      <trkpt lat="45.40196" lon="6.56458">
        <ele>1476.91625</ele>
        <time>2013-02-18T12:59:15Z</time>
      </trkpt>
      <trkpt lat="45.40202" lon="6.56456">
        <ele>1475.418767</ele>
        <time>2013-02-18T12:59:20Z</time>
      </trkpt>
      <trkpt lat="45.40207" lon="6.56451">
        <ele>1475.853324</ele>
        <time>2013-02-18T12:59:25Z</time>
      </trkpt>
      <trkpt lat="45.40212" lon="6.56451">
        <ele>1475.83117</ele>
        <time>2013-02-18T12:59:30Z</time>
      </trkpt>
      <trkpt lat="45.40219" lon="6.56447">
        <ele>1473.47565</ele>
        <time>2013-02-18T12:59:35Z</time>
      </trkpt>
      <trkpt lat="45.40225" lon="6.56442">
        <ele>1471.105609</ele>
        <time>2013-02-18T12:59:40Z</time>
      </trkpt>
      <trkpt lat="45.40231" lon="6.56438">
        <ele>1466.613948</ele>
        <time>2013-02-18T12:59:45Z</time>
      </trkpt>
      <trkpt lat="45.40238" lon="6.56436">
        <ele>1464.338725</ele>
        <time>2013-02-18T12:59:50Z</time>
      </trkpt>
      <trkpt lat="45.40246" lon="6.56434">
        <ele>1465.674985</ele>
        <time>2013-02-18T12:59:55Z</time>
      </trkpt>
      <trkpt lat="45.40251" lon="6.56435">
        <ele>1464.323561</ele>
        <time>2013-02-18T13:00:00Z</time>
      </trkpt>
      <trkpt lat="45.40256" lon="6.5643">
        <ele>1462.651079</ele>
        <time>2013-02-18T13:00:05Z</time>
      </trkpt>
      <trkpt lat="45.40255" lon="6.56428">
        <ele>1465.375425</ele>
        <time>2013-02-18T13:00:26Z</time>
      </trkpt>
      <trkpt lat="45.40255" lon="6.56422">
        <ele>1462.85247</ele>
        <time>2013-02-18T13:00:31Z</time>
      </trkpt>
      <trkpt lat="45.40253" lon="6.56415">
        <ele>1458.113083</ele>
        <time>2013-02-18T13:00:36Z</time>
      </trkpt>
      <trkpt lat="45.40254" lon="6.56406">
        <ele>1454.746631</ele>
        <time>2013-02-18T13:00:41Z</time>
      </trkpt>
      <trkpt lat="45.40255" lon="6.56399">
        <ele>1459.983624</ele>
        <time>2013-02-18T13:00:46Z</time>
      </trkpt>
      <trkpt lat="45.40259" lon="6.56395">
        <ele>1467.546395</ele>
        <time>2013-02-18T13:00:51Z</time>
      </trkpt>
      <trkpt lat="45.40268" lon="6.56394">
        <ele>1463.95645</ele>
        <time>2013-02-18T13:00:56Z</time>
      </trkpt>
      <trkpt lat="45.40271" lon="6.56396">
        <ele>1469.086842</ele>
        <time>2013-02-18T13:01:01Z</time>
      </trkpt>
      <trkpt lat="45.40271" lon="6.56396">
        <ele>1464.777854</ele>
        <time>2013-02-18T13:01:06Z</time>
      </trkpt>
      <trkpt lat="45.40274" lon="6.56396">
        <ele>1465.519</ele>
        <time>2013-02-18T13:01:16Z</time>
      </trkpt>
      <trkpt lat="45.40279" lon="6.56399">
        <ele>1467.147274</ele>
        <time>2013-02-18T13:01:21Z</time>
      </trkpt>
      <trkpt lat="45.40287" lon="6.56395">
        <ele>1469.035142</ele>
        <time>2013-02-18T13:01:26Z</time>
      </trkpt>
      <trkpt lat="45.40297" lon="6.56386">
        <ele>1462.856596</ele>
        <time>2013-02-18T13:01:31Z</time>
      </trkpt>
      <trkpt lat="45.40304" lon="6.56377">
        <ele>1455.239397</ele>
        <time>2013-02-18T13:01:36Z</time>
      </trkpt>
      <trkpt lat="45.40308" lon="6.56374">
        <ele>1453.6327</ele>
        <time>2013-02-18T13:01:41Z</time>
      </trkpt>
      <trkpt lat="45.40313" lon="6.56371">
        <ele>1454.147648</ele>
        <time>2013-02-18T13:01:46Z</time>
      </trkpt>
      <trkpt lat="45.40317" lon="6.56369">
        <ele>1456.152435</ele>
        <time>2013-02-18T13:01:51Z</time>
      </trkpt>
      <trkpt lat="45.40321" lon="6.56365">
        <ele>1458.062415</ele>
        <time>2013-02-18T13:01:56Z</time>
      </trkpt>
      <trkpt lat="45.40327" lon="6.56364">
        <ele>1459.464511</ele>
        <time>2013-02-18T13:02:01Z</time>
      </trkpt>
      <trkpt lat="45.40333" lon="6.56361">
        <ele>1467.83424</ele>
        <time>2013-02-18T13:02:06Z</time>
      </trkpt>
      <trkpt lat="45.40339" lon="6.56358">
        <ele>1468.363774</ele>
        <time>2013-02-18T13:02:11Z</time>
      </trkpt>
      <trkpt lat="45.40344" lon="6.56357">
        <ele>1470.448842</ele>
        <time>2013-02-18T13:02:16Z</time>
      </trkpt>
      <trkpt lat="45.40352" lon="6.56359">
        <ele>1464.200397</ele>
        <time>2013-02-18T13:02:21Z</time>
      </trkpt>
      <trkpt lat="45.40363" lon="6.56361">
        <ele>1452.34279</ele>
        <time>2013-02-18T13:02:26Z</time>
      </trkpt>
      <trkpt lat="45.4037" lon="6.56364">
        <ele>1451.798369</ele>
        <time>2013-02-18T13:02:31Z</time>
      </trkpt>
      <trkpt lat="45.40378" lon="6.56365">
        <ele>1449.778695</ele>
        <time>2013-02-18T13:02:36Z</time>
      </trkpt>
      <trkpt lat="45.40384" lon="6.56367">
        <ele>1446.400573</ele>
        <time>2013-02-18T13:02:41Z</time>
      </trkpt>
      <trkpt lat="45.4039" lon="6.56366">
        <ele>1452.031476</ele>
        <time>2013-02-18T13:02:46Z</time>
      </trkpt>
      <trkpt lat="45.40395" lon="6.56364">
        <ele>1451.21718</ele>
        <time>2013-02-18T13:02:51Z</time>
      </trkpt>
      <trkpt lat="45.404" lon="6.56358">
        <ele>1449.464623</ele>
        <time>2013-02-18T13:02:56Z</time>
      </trkpt>
      <trkpt lat="45.40406" lon="6.56354">
        <ele>1451.323558</ele>
        <time>2013-02-18T13:03:01Z</time>
      </trkpt>
      <trkpt lat="45.40412" lon="6.56348">
        <ele>1448.161443</ele>
        <time>2013-02-18T13:03:06Z</time>
      </trkpt>
      <trkpt lat="45.40417" lon="6.5634">
        <ele>1450.477137</ele>
        <time>2013-02-18T13:03:11Z</time>
      </trkpt>
      <trkpt lat="45.40423" lon="6.56336">
        <ele>1445.985716</ele>
        <time>2013-02-18T13:03:16Z</time>
      </trkpt>
      <trkpt lat="45.40428" lon="6.56329">
        <ele>1442.743378</ele>
        <time>2013-02-18T13:03:21Z</time>
      </trkpt>
      <trkpt lat="45.40433" lon="6.56327">
        <ele>1443.338699</ele>
        <time>2013-02-18T13:03:26Z</time>
      </trkpt>
      <trkpt lat="45.40437" lon="6.56324">
        <ele>1446.041098</ele>
        <time>2013-02-18T13:03:31Z</time>
      </trkpt>
      <trkpt lat="45.40441" lon="6.56321">
        <ele>1450.784909</ele>
        <time>2013-02-18T13:03:36Z</time>
      </trkpt>
      <trkpt lat="45.40448" lon="6.56319">
        <ele>1452.106909</ele>
        <time>2013-02-18T13:03:41Z</time>
      </trkpt>
      <trkpt lat="45.40452" lon="6.56317">
        <ele>1455.601652</ele>
        <time>2013-02-18T13:03:46Z</time>
      </trkpt>
      <trkpt lat="45.40456" lon="6.56315">
        <ele>1457.591986</ele>
        <time>2013-02-18T13:03:51Z</time>
      </trkpt>
      <trkpt lat="45.40461" lon="6.56312">
        <ele>1458.121675</ele>
        <time>2013-02-18T13:03:56Z</time>
      </trkpt>
      <trkpt lat="45.40467" lon="6.56307">
        <ele>1456.449465</ele>
        <time>2013-02-18T13:04:01Z</time>
      </trkpt>
      <trkpt lat="45.40469" lon="6.56307">
        <ele>1454.276737</ele>
        <time>2013-02-18T13:04:06Z</time>
      </trkpt>
      <trkpt lat="45.40477" lon="6.56303">
        <ele>1457.654781</ele>
        <time>2013-02-18T13:04:11Z</time>
      </trkpt>
      <trkpt lat="45.40485" lon="6.56301">
        <ele>1456.092024</ele>
        <time>2013-02-18T13:04:16Z</time>
      </trkpt>
      <trkpt lat="45.40491" lon="6.563">
        <ele>1458.19182</ele>
        <time>2013-02-18T13:04:21Z</time>
      </trkpt>
      <trkpt lat="45.40493" lon="6.563">
        <ele>1460.328079</ele>
        <time>2013-02-18T13:04:30Z</time>
      </trkpt>
      <trkpt lat="45.40495" lon="6.56298">
        <ele>1459.484693</ele>
        <time>2013-02-18T13:04:37Z</time>
      </trkpt>
      <trkpt lat="45.40506" lon="6.56294">
        <ele>1441.587837</ele>
        <time>2013-02-18T13:04:42Z</time>
      </trkpt>
      <trkpt lat="45.40511" lon="6.56292">
        <ele>1439.36408</ele>
        <time>2013-02-18T13:04:47Z</time>
      </trkpt>
      <trkpt lat="45.40519" lon="6.5629">
        <ele>1449.870327</ele>
        <time>2013-02-18T13:04:52Z</time>
      </trkpt>
      <trkpt lat="45.40519" lon="6.56291">
        <ele>1452.769725</ele>
        <time>2013-02-18T13:05:00Z</time>
      </trkpt>
      <trkpt lat="45.40521" lon="6.5629">
        <ele>1452.718686</ele>
        <time>2013-02-18T13:05:07Z</time>
      </trkpt>
      <trkpt lat="45.40527" lon="6.56288">
        <ele>1454.026188</ele>
        <time>2013-02-18T13:05:12Z</time>
      </trkpt>
      <trkpt lat="45.40532" lon="6.56285">
        <ele>1452.434299</ele>
        <time>2013-02-18T13:05:17Z</time>
      </trkpt>
      <trkpt lat="45.40538" lon="6.56287">
        <ele>1451.875482</ele>
        <time>2013-02-18T13:05:22Z</time>
      </trkpt>
      <trkpt lat="45.40542" lon="6.56285">
        <ele>1452.470909</ele>
        <time>2013-02-18T13:05:27Z</time>
      </trkpt>
      <trkpt lat="45.40549" lon="6.56282">
        <ele>1450.196162</ele>
        <time>2013-02-18T13:05:32Z</time>
      </trkpt>
      <trkpt lat="45.40558" lon="6.56279">
        <ele>1449.345615</ele>
        <time>2013-02-18T13:05:37Z</time>
      </trkpt>
      <trkpt lat="45.40564" lon="6.56281">
        <ele>1450.908497</ele>
        <time>2013-02-18T13:05:42Z</time>
      </trkpt>
      <trkpt lat="45.40569" lon="6.56277">
        <ele>1452.833284</ele>
        <time>2013-02-18T13:05:47Z</time>
      </trkpt>
      <trkpt lat="45.40573" lon="6.56274">
        <ele>1449.817249</ele>
        <time>2013-02-18T13:05:52Z</time>
      </trkpt>
      <trkpt lat="45.40578" lon="6.56275">
        <ele>1448.466135</ele>
        <time>2013-02-18T13:05:57Z</time>
      </trkpt>
      <trkpt lat="45.40584" lon="6.56273">
        <ele>1446.257064</ele>
        <time>2013-02-18T13:06:02Z</time>
      </trkpt>
      <trkpt lat="45.4059" lon="6.56273">
        <ele>1442.718664</ele>
        <time>2013-02-18T13:06:07Z</time>
      </trkpt>
      <trkpt lat="45.40595" lon="6.56271">
        <ele>1441.919184</ele>
        <time>2013-02-18T13:06:12Z</time>
      </trkpt>
      <trkpt lat="45.40601" lon="6.56268">
        <ele>1445.965679</ele>
        <time>2013-02-18T13:06:17Z</time>
      </trkpt>
      <trkpt lat="45.40606" lon="6.56264">
        <ele>1447.193026</ele>
        <time>2013-02-18T13:06:22Z</time>
      </trkpt>
      <trkpt lat="45.40613" lon="6.56264">
        <ele>1446.488431</ele>
        <time>2013-02-18T13:06:27Z</time>
      </trkpt>
      <trkpt lat="45.4062" lon="6.56261">
        <ele>1441.394634</ele>
        <time>2013-02-18T13:06:32Z</time>
      </trkpt>
      <trkpt lat="45.4063" lon="6.56259">
        <ele>1437.739683</ele>
        <time>2013-02-18T13:06:37Z</time>
      </trkpt>
      <trkpt lat="45.40637" lon="6.56258">
        <ele>1434.135727</ele>
        <time>2013-02-18T13:06:42Z</time>
      </trkpt>
      <trkpt lat="45.40645" lon="6.56256">
        <ele>1431.243886</ele>
        <time>2013-02-18T13:06:47Z</time>
      </trkpt>
      <trkpt lat="45.40649" lon="6.56257">
        <ele>1431.287786</ele>
        <time>2013-02-18T13:06:52Z</time>
      </trkpt>
      <trkpt lat="45.40656" lon="6.56255">
        <ele>1430.503011</ele>
        <time>2013-02-18T13:06:57Z</time>
      </trkpt>
      <trkpt lat="45.40662" lon="6.56255">
        <ele>1429.086376</ele>
        <time>2013-02-18T13:07:02Z</time>
      </trkpt>
      <trkpt lat="45.40669" lon="6.56258">
        <ele>1424.393841</ele>
        <time>2013-02-18T13:07:07Z</time>
      </trkpt>
      <trkpt lat="45.40675" lon="6.56261">
        <ele>1421.016014</ele>
        <time>2013-02-18T13:07:12Z</time>
      </trkpt>
      <trkpt lat="45.40679" lon="6.56266">
        <ele>1422.093001</ele>
        <time>2013-02-18T13:07:17Z</time>
      </trkpt>
      <trkpt lat="45.40685" lon="6.56267">
        <ele>1424.273255</ele>
        <time>2013-02-18T13:07:22Z</time>
      </trkpt>
      <trkpt lat="45.4069" lon="6.56268">
        <ele>1425.821645</ele>
        <time>2013-02-18T13:07:27Z</time>
      </trkpt>
      <trkpt lat="45.40697" lon="6.56265">
        <ele>1425.668797</ele>
        <time>2013-02-18T13:07:32Z</time>
      </trkpt>
      <trkpt lat="45.40704" lon="6.56265">
        <ele>1424.252214</ele>
        <time>2013-02-18T13:07:37Z</time>
      </trkpt>
      <trkpt lat="45.4071" lon="6.56267">
        <ele>1424.405694</ele>
        <time>2013-02-18T13:07:42Z</time>
      </trkpt>
      <trkpt lat="45.40715" lon="6.56267">
        <ele>1422.974476</ele>
        <time>2013-02-18T13:07:47Z</time>
      </trkpt>
      <trkpt lat="45.40721" lon="6.56268">
        <ele>1418.106886</ele>
        <time>2013-02-18T13:07:52Z</time>
      </trkpt>
      <trkpt lat="45.40729" lon="6.56267">
        <ele>1416.704985</ele>
        <time>2013-02-18T13:07:57Z</time>
      </trkpt>
      <trkpt lat="45.40733" lon="6.56267">
        <ele>1415.971248</ele>
        <time>2013-02-18T13:08:02Z</time>
      </trkpt>
      <trkpt lat="45.4074" lon="6.56267">
        <ele>1411.735555</ele>
        <time>2013-02-18T13:08:07Z</time>
      </trkpt>
      <trkpt lat="45.40747" lon="6.56266">
        <ele>1410.333683</ele>
        <time>2013-02-18T13:08:12Z</time>
      </trkpt>
      <trkpt lat="45.40753" lon="6.56268">
        <ele>1411.896793</ele>
        <time>2013-02-18T13:08:17Z</time>
      </trkpt>
      <trkpt lat="45.40758" lon="6.5627">
        <ele>1422.680408</ele>
        <time>2013-02-18T13:08:22Z</time>
      </trkpt>
      <trkpt lat="45.40764" lon="6.56268">
        <ele>1424.002816</ele>
        <time>2013-02-18T13:08:27Z</time>
      </trkpt>
      <trkpt lat="45.40772" lon="6.56265">
        <ele>1419.541112</ele>
        <time>2013-02-18T13:08:32Z</time>
      </trkpt>
      <trkpt lat="45.40779" lon="6.56262">
        <ele>1413.735417</ele>
        <time>2013-02-18T13:08:37Z</time>
      </trkpt>
      <trkpt lat="45.40782" lon="6.56259">
        <ele>1414.236159</ele>
        <time>2013-02-18T13:08:42Z</time>
      </trkpt>
      <trkpt lat="45.40788" lon="6.56258">
        <ele>1412.10756</ele>
        <time>2013-02-18T13:08:47Z</time>
      </trkpt>
      <trkpt lat="45.40798" lon="6.56246">
        <ele>1402.870185</ele>
        <time>2013-02-18T13:08:52Z</time>
      </trkpt>
      <trkpt lat="45.40802" lon="6.56241">
        <ele>1397.586839</ele>
        <time>2013-02-18T13:08:57Z</time>
      </trkpt>
      <trkpt lat="45.40805" lon="6.56238">
        <ele>1398.865291</ele>
        <time>2013-02-18T13:09:04Z</time>
      </trkpt>
      <trkpt lat="45.40813" lon="6.56225">
        <ele>1395.94906</ele>
        <time>2013-02-18T13:09:09Z</time>
      </trkpt>
      <trkpt lat="45.40817" lon="6.56217">
        <ele>1392.612305</ele>
        <time>2013-02-18T13:09:14Z</time>
      </trkpt>
      <trkpt lat="45.4082" lon="6.56214">
        <ele>1390.991384</ele>
        <time>2013-02-18T13:09:19Z</time>
      </trkpt>
      <trkpt lat="45.40822" lon="6.56209">
        <ele>1389.987686</ele>
        <time>2013-02-18T13:09:24Z</time>
      </trkpt>
      <trkpt lat="45.40827" lon="6.56197">
        <ele>1387.122391</ele>
        <time>2013-02-18T13:09:29Z</time>
      </trkpt>
      <trkpt lat="45.4083" lon="6.5619">
        <ele>1386.670376</ele>
        <time>2013-02-18T13:09:34Z</time>
      </trkpt>
      <trkpt lat="45.40832" lon="6.56185">
        <ele>1386.364144</ele>
        <time>2013-02-18T13:09:39Z</time>
      </trkpt>
      <trkpt lat="45.40832" lon="6.56187">
        <ele>1390.753333</ele>
        <time>2013-02-18T13:09:44Z</time>
      </trkpt>
      <trkpt lat="45.40834" lon="6.56187">
        <ele>1392.889717</ele>
        <time>2013-02-18T13:09:54Z</time>
      </trkpt>
      <trkpt lat="45.4083" lon="6.56183">
        <ele>1394.01458</ele>
        <time>2013-02-18T13:09:59Z</time>
      </trkpt>
      <trkpt lat="45.40824" lon="6.56184">
        <ele>1394.813779</ele>
        <time>2013-02-18T13:10:04Z</time>
      </trkpt>
      <trkpt lat="45.40816" lon="6.56185">
        <ele>1391.9868</ele>
        <time>2013-02-18T13:10:09Z</time>
      </trkpt>
      <trkpt lat="45.40813" lon="6.56185">
        <ele>1387.714045</ele>
        <time>2013-02-18T13:10:14Z</time>
      </trkpt>
      <trkpt lat="45.40809" lon="6.56186">
        <ele>1384.233646</ele>
        <time>2013-02-18T13:10:19Z</time>
      </trkpt>
      <trkpt lat="45.40802" lon="6.5619">
        <ele>1386.588232</ele>
        <time>2013-02-18T13:10:24Z</time>
      </trkpt>
      <trkpt lat="45.408" lon="6.56191">
        <ele>1382.330157</ele>
        <time>2013-02-18T13:10:29Z</time>
      </trkpt>
      <trkpt lat="45.40798" lon="6.56191">
        <ele>1377.374629</ele>
        <time>2013-02-18T13:10:34Z</time>
      </trkpt>
      <trkpt lat="45.40794" lon="6.56191">
        <ele>1371.692309</ele>
        <time>2013-02-18T13:10:39Z</time>
      </trkpt>
      <trkpt lat="45.40788" lon="6.56193">
        <ele>1371.779428</ele>
        <time>2013-02-18T13:10:44Z</time>
      </trkpt>
      <trkpt lat="45.40782" lon="6.5619">
        <ele>1372.257761</ele>
        <time>2013-02-18T13:10:49Z</time>
      </trkpt>
      <trkpt lat="45.40776" lon="6.56185">
        <ele>1371.943753</ele>
        <time>2013-02-18T13:10:54Z</time>
      </trkpt>
      <trkpt lat="45.40774" lon="6.5618">
        <ele>1373.003093</ele>
        <time>2013-02-18T13:10:59Z</time>
      </trkpt>
      <trkpt lat="45.40773" lon="6.56172">
        <ele>1371.09749</ele>
        <time>2013-02-18T13:11:04Z</time>
      </trkpt>
      <trkpt lat="45.40772" lon="6.56167">
        <ele>1367.942766</ele>
        <time>2013-02-18T13:11:09Z</time>
      </trkpt>
      <trkpt lat="45.40772" lon="6.56158">
        <ele>1367.381189</ele>
        <time>2013-02-18T13:11:14Z</time>
      </trkpt>
      <trkpt lat="45.40774" lon="6.56153">
        <ele>1373.42539</ele>
        <time>2013-02-18T13:11:19Z</time>
      </trkpt>
      <trkpt lat="45.40775" lon="6.56142">
        <ele>1372.783603</ele>
        <time>2013-02-18T13:11:24Z</time>
      </trkpt>
      <trkpt lat="45.40775" lon="6.56135">
        <ele>1377.308685</ele>
        <time>2013-02-18T13:11:29Z</time>
      </trkpt>
      <trkpt lat="45.40778" lon="6.5613">
        <ele>1382.655441</ele>
        <time>2013-02-18T13:11:34Z</time>
      </trkpt>
      <trkpt lat="45.40781" lon="6.56122">
        <ele>1379.304066</ele>
        <time>2013-02-18T13:11:39Z</time>
      </trkpt>
      <trkpt lat="45.40783" lon="6.56117">
        <ele>1376.890815</ele>
        <time>2013-02-18T13:11:44Z</time>
      </trkpt>
      <trkpt lat="45.40786" lon="6.56114">
        <ele>1375.98203</ele>
        <time>2013-02-18T13:11:53Z</time>
      </trkpt>
      <trkpt lat="45.40788" lon="6.5611">
        <ele>1375.756039</ele>
        <time>2013-02-18T13:11:58Z</time>
      </trkpt>
      <trkpt lat="45.40788" lon="6.56107">
        <ele>1377.717304</ele>
        <time>2013-02-18T13:12:03Z</time>
      </trkpt>
      <trkpt lat="45.40789" lon="6.56104">
        <ele>1375.369614</ele>
        <time>2013-02-18T13:12:11Z</time>
      </trkpt>
      <trkpt lat="45.4079" lon="6.561">
        <ele>1374.431504</ele>
        <time>2013-02-18T13:12:16Z</time>
      </trkpt>
      <trkpt lat="45.40792" lon="6.56095">
        <ele>1375.534882</ele>
        <time>2013-02-18T13:12:21Z</time>
      </trkpt>
      <trkpt lat="45.40795" lon="6.56087">
        <ele>1372.183543</ele>
        <time>2013-02-18T13:12:26Z</time>
      </trkpt>
      <trkpt lat="45.40796" lon="6.5608">
        <ele>1374.616293</ele>
        <time>2013-02-18T13:12:31Z</time>
      </trkpt>
      <trkpt lat="45.40801" lon="6.56071">
        <ele>1374.730707</ele>
        <time>2013-02-18T13:12:36Z</time>
      </trkpt>
      <trkpt lat="45.40807" lon="6.5606">
        <ele>1375.477047</ele>
        <time>2013-02-18T13:12:41Z</time>
      </trkpt>
      <trkpt lat="45.4081" lon="6.56056">
        <ele>1376.675332</ele>
        <time>2013-02-18T13:12:46Z</time>
      </trkpt>
      <trkpt lat="45.40815" lon="6.56049">
        <ele>1376.252749</ele>
        <time>2013-02-18T13:12:51Z</time>
      </trkpt>
      <trkpt lat="45.40824" lon="6.56041">
        <ele>1374.369733</ele>
        <time>2013-02-18T13:12:56Z</time>
      </trkpt>
      <trkpt lat="45.40831" lon="6.56039">
        <ele>1375.706942</ele>
        <time>2013-02-18T13:13:01Z</time>
      </trkpt>
      <trkpt lat="45.40836" lon="6.56033">
        <ele>1373.162685</ele>
        <time>2013-02-18T13:13:06Z</time>
      </trkpt>
      <trkpt lat="45.4084" lon="6.56027">
        <ele>1372.805675</ele>
        <time>2013-02-18T13:13:11Z</time>
      </trkpt>
      <trkpt lat="45.40844" lon="6.56023">
        <ele>1375.428248</ele>
        <time>2013-02-18T13:13:16Z</time>
      </trkpt>
      <trkpt lat="45.40849" lon="6.56017">
        <ele>1375.783381</ele>
        <time>2013-02-18T13:13:21Z</time>
      </trkpt>
      <trkpt lat="45.40855" lon="6.5601">
        <ele>1374.663417</ele>
        <time>2013-02-18T13:13:26Z</time>
      </trkpt>
      <trkpt lat="45.40861" lon="6.56006">
        <ele>1372.991742</ele>
        <time>2013-02-18T13:13:31Z</time>
      </trkpt>
      <trkpt lat="45.40866" lon="6.55999">
        <ele>1369.037954</ele>
        <time>2013-02-18T13:13:36Z</time>
      </trkpt>
      <trkpt lat="45.40871" lon="6.55995">
        <ele>1368.775875</ele>
        <time>2013-02-18T13:13:41Z</time>
      </trkpt>
      <trkpt lat="45.40874" lon="6.55992">
        <ele>1368.644839</ele>
        <time>2013-02-18T13:13:46Z</time>
      </trkpt>
      <trkpt lat="45.40876" lon="6.55986">
        <ele>1368.970644</ele>
        <time>2013-02-18T13:13:51Z</time>
      </trkpt>
      <trkpt lat="45.40884" lon="6.55963">
        <ele>1368.232396</ele>
        <time>2013-02-18T13:13:56Z</time>
      </trkpt>
      <trkpt lat="45.40888" lon="6.55951">
        <ele>1366.050204</ele>
        <time>2013-02-18T13:14:01Z</time>
      </trkpt>
      <trkpt lat="45.40889" lon="6.55942">
        <ele>1364.791377</ele>
        <time>2013-02-18T13:14:06Z</time>
      </trkpt>
      <trkpt lat="45.4089" lon="6.55935">
        <ele>1365.814665</ele>
        <time>2013-02-18T13:14:11Z</time>
      </trkpt>
      <trkpt lat="45.40894" lon="6.55928">
        <ele>1363.255842</ele>
        <time>2013-02-18T13:14:16Z</time>
      </trkpt>
      <trkpt lat="45.40896" lon="6.55922">
        <ele>1364.27914</ele>
        <time>2013-02-18T13:14:21Z</time>
      </trkpt>
      <trkpt lat="45.40898" lon="6.55914">
        <ele>1365.934386</ele>
        <time>2013-02-18T13:14:26Z</time>
      </trkpt>
      <trkpt lat="45.40901" lon="6.55903">
        <ele>1365.242033</ele>
        <time>2013-02-18T13:14:31Z</time>
      </trkpt>
      <trkpt lat="45.40904" lon="6.55892">
        <ele>1365.959277</ele>
        <time>2013-02-18T13:14:36Z</time>
      </trkpt>
      <trkpt lat="45.40907" lon="6.55883">
        <ele>1368.246496</ele>
        <time>2013-02-18T13:14:41Z</time>
      </trkpt>
      <trkpt lat="45.4091" lon="6.55874">
        <ele>1369.821587</ele>
        <time>2013-02-18T13:14:46Z</time>
      </trkpt>
      <trkpt lat="45.40912" lon="6.55866">
        <ele>1367.865383</ele>
        <time>2013-02-18T13:14:51Z</time>
      </trkpt>
      <trkpt lat="45.40915" lon="6.55857">
        <ele>1367.333463</ele>
        <time>2013-02-18T13:14:56Z</time>
      </trkpt>
      <trkpt lat="45.40917" lon="6.55848">
        <ele>1367.498997</ele>
        <time>2013-02-18T13:15:01Z</time>
      </trkpt>
      <trkpt lat="45.4092" lon="6.55843">
        <ele>1374.255561</ele>
        <time>2013-02-18T13:15:06Z</time>
      </trkpt>
      <trkpt lat="45.40924" lon="6.55835">
        <ele>1376.637709</ele>
        <time>2013-02-18T13:15:11Z</time>
      </trkpt>
      <trkpt lat="45.40928" lon="6.55831">
        <ele>1376.361066</ele>
        <time>2013-02-18T13:15:16Z</time>
      </trkpt>
      <trkpt lat="45.40932" lon="6.55826">
        <ele>1378.191453</ele>
        <time>2013-02-18T13:15:21Z</time>
      </trkpt>
      <trkpt lat="45.40935" lon="6.55822">
        <ele>1382.921193</ele>
        <time>2013-02-18T13:15:26Z</time>
      </trkpt>
      <trkpt lat="45.40938" lon="6.55819">
        <ele>1387.018976</ele>
        <time>2013-02-18T13:15:31Z</time>
      </trkpt>
      <trkpt lat="45.40944" lon="6.55813">
        <ele>1387.389012</ele>
        <time>2013-02-18T13:15:36Z</time>
      </trkpt>
      <trkpt lat="45.4095" lon="6.55805">
        <ele>1389.008282</ele>
        <time>2013-02-18T13:15:41Z</time>
      </trkpt>
      <trkpt lat="45.40955" lon="6.55799">
        <ele>1388.666196</ele>
        <time>2013-02-18T13:15:46Z</time>
      </trkpt>
      <trkpt lat="45.40962" lon="6.55789">
        <ele>1380.258052</ele>
        <time>2013-02-18T13:15:51Z</time>
      </trkpt>
      <trkpt lat="45.40966" lon="6.55784">
        <ele>1381.391043</ele>
        <time>2013-02-18T13:15:56Z</time>
      </trkpt>
      <trkpt lat="45.4097" lon="6.55781">
        <ele>1382.604214</ele>
        <time>2013-02-18T13:16:01Z</time>
      </trkpt>
      <trkpt lat="45.40975" lon="6.55774">
        <ele>1379.36282</ele>
        <time>2013-02-18T13:16:06Z</time>
      </trkpt>
      <trkpt lat="45.4098" lon="6.55765">
        <ele>1377.355964</ele>
        <time>2013-02-18T13:16:11Z</time>
      </trkpt>
      <trkpt lat="45.40983" lon="6.55752">
        <ele>1375.174066</ele>
        <time>2013-02-18T13:16:16Z</time>
      </trkpt>
      <trkpt lat="45.40983" lon="6.55743">
        <ele>1375.310301</ele>
        <time>2013-02-18T13:16:21Z</time>
      </trkpt>
      <trkpt lat="45.40979" lon="6.55737">
        <ele>1379.174245</ele>
        <time>2013-02-18T13:16:26Z</time>
      </trkpt>
      <trkpt lat="45.40972" lon="6.55734">
        <ele>1380.335247</ele>
        <time>2013-02-18T13:16:31Z</time>
      </trkpt>
      <trkpt lat="45.40967" lon="6.5573">
        <ele>1378.626332</ele>
        <time>2013-02-18T13:16:36Z</time>
      </trkpt>
      <trkpt lat="45.40966" lon="6.55721">
        <ele>1375.231273</ele>
        <time>2013-02-18T13:16:41Z</time>
      </trkpt>
      <trkpt lat="45.40969" lon="6.55715">
        <ele>1372.738111</ele>
        <time>2013-02-18T13:16:46Z</time>
      </trkpt>
      <trkpt lat="45.40972" lon="6.55708">
        <ele>1370.876932</ele>
        <time>2013-02-18T13:16:51Z</time>
      </trkpt>
      <trkpt lat="45.40974" lon="6.55702">
        <ele>1369.793365</ele>
        <time>2013-02-18T13:16:56Z</time>
      </trkpt>
      <trkpt lat="45.40978" lon="6.55696">
        <ele>1370.846239</ele>
        <time>2013-02-18T13:17:01Z</time>
      </trkpt>
      <trkpt lat="45.40979" lon="6.55692">
        <ele>1369.210865</ele>
        <time>2013-02-18T13:17:12Z</time>
      </trkpt>
      <trkpt lat="45.40983" lon="6.55685">
        <ele>1369.471439</ele>
        <time>2013-02-18T13:17:17Z</time>
      </trkpt>
      <trkpt lat="45.40986" lon="6.55676">
        <ele>1371.046734</ele>
        <time>2013-02-18T13:17:22Z</time>
      </trkpt>
      <trkpt lat="45.40988" lon="6.55672">
        <ele>1372.942687</ele>
        <time>2013-02-18T13:17:27Z</time>
      </trkpt>
      <trkpt lat="45.40989" lon="6.55668">
        <ele>1374.126494</ele>
        <time>2013-02-18T13:17:34Z</time>
      </trkpt>
      <trkpt lat="45.40994" lon="6.55662">
        <ele>1374.481963</ele>
        <time>2013-02-18T13:17:39Z</time>
      </trkpt>
      <trkpt lat="45.41" lon="6.55652">
        <ele>1371.000191</ele>
        <time>2013-02-18T13:17:44Z</time>
      </trkpt>
      <trkpt lat="45.41006" lon="6.55647">
        <ele>1372.860136</ele>
        <time>2013-02-18T13:17:49Z</time>
      </trkpt>
      <trkpt lat="45.4101" lon="6.55641">
        <ele>1373.215632</ele>
        <time>2013-02-18T13:17:54Z</time>
      </trkpt>
      <trkpt lat="45.41015" lon="6.55636">
        <ele>1370.039814</ele>
        <time>2013-02-18T13:17:59Z</time>
      </trkpt>
      <trkpt lat="45.41019" lon="6.55634">
        <ele>1367.816625</ele>
        <time>2013-02-18T13:18:04Z</time>
      </trkpt>
      <trkpt lat="45.41025" lon="6.55632">
        <ele>1369.836915</ele>
        <time>2013-02-18T13:18:09Z</time>
      </trkpt>
      <trkpt lat="45.4103" lon="6.55628">
        <ele>1372.474489</ele>
        <time>2013-02-18T13:18:14Z</time>
      </trkpt>
      <trkpt lat="45.41032" lon="6.55628">
        <ele>1368.892447</ele>
        <time>2013-02-18T13:18:20Z</time>
      </trkpt>
      <trkpt lat="45.41037" lon="6.55628">
        <ele>1368.239173</ele>
        <time>2013-02-18T13:18:25Z</time>
      </trkpt>
      <trkpt lat="45.41044" lon="6.55625">
        <ele>1368.784465</ele>
        <time>2013-02-18T13:18:30Z</time>
      </trkpt>
      <trkpt lat="45.4105" lon="6.55622">
        <ele>1366.495871</ele>
        <time>2013-02-18T13:18:35Z</time>
      </trkpt>
      <trkpt lat="45.41056" lon="6.5562">
        <ele>1362.10027</ele>
        <time>2013-02-18T13:18:40Z</time>
      </trkpt>
      <trkpt lat="45.4106" lon="6.55618">
        <ele>1358.452809</ele>
        <time>2013-02-18T13:18:45Z</time>
      </trkpt>
      <trkpt lat="45.41063" lon="6.5562">
        <ele>1363.583485</ele>
        <time>2013-02-18T13:18:50Z</time>
      </trkpt>
      <trkpt lat="45.41066" lon="6.55625">
        <ele>1362.458547</ele>
        <time>2013-02-18T13:18:55Z</time>
      </trkpt>
      <trkpt lat="45.41071" lon="6.5562">
        <ele>1360.075096</ele>
        <time>2013-02-18T13:19:00Z</time>
      </trkpt>
      <trkpt lat="45.41078" lon="6.55615">
        <ele>1359.74797</ele>
        <time>2013-02-18T13:19:05Z</time>
      </trkpt>
      <trkpt lat="45.41087" lon="6.55611">
        <ele>1356.711303</ele>
        <time>2013-02-18T13:19:10Z</time>
      </trkpt>
      <trkpt lat="45.41088" lon="6.55608">
        <ele>1358.672741</ele>
        <time>2013-02-18T13:19:17Z</time>
      </trkpt>
      <trkpt lat="45.41093" lon="6.55608">
        <ele>1357.241935</ele>
        <time>2013-02-18T13:19:22Z</time>
      </trkpt>
      <trkpt lat="45.411" lon="6.55606">
        <ele>1356.457877</ele>
        <time>2013-02-18T13:19:27Z</time>
      </trkpt>
      <trkpt lat="45.41107" lon="6.55605">
        <ele>1358.573154</ele>
        <time>2013-02-18T13:19:32Z</time>
      </trkpt>
      <trkpt lat="45.41114" lon="6.55602">
        <ele>1363.347309</ele>
        <time>2013-02-18T13:19:37Z</time>
      </trkpt>
      <trkpt lat="45.41121" lon="6.556">
        <ele>1361.851118</ele>
        <time>2013-02-18T13:19:42Z</time>
      </trkpt>
      <trkpt lat="45.4113" lon="6.556">
        <ele>1357.6454</ele>
        <time>2013-02-18T13:19:47Z</time>
      </trkpt>
      <trkpt lat="45.41135" lon="6.55599">
        <ele>1353.315313</ele>
        <time>2013-02-18T13:19:52Z</time>
      </trkpt>
      <trkpt lat="45.41141" lon="6.55593">
        <ele>1355.095289</ele>
        <time>2013-02-18T13:19:57Z</time>
      </trkpt>
      <trkpt lat="45.41144" lon="6.55593">
        <ele>1359.353539</ele>
        <time>2013-02-18T13:20:02Z</time>
      </trkpt>
      <trkpt lat="45.41152" lon="6.55595">
        <ele>1356.005581</ele>
        <time>2013-02-18T13:20:07Z</time>
      </trkpt>
      <trkpt lat="45.41157" lon="6.55596">
        <ele>1351.1384</ele>
        <time>2013-02-18T13:20:12Z</time>
      </trkpt>
      <trkpt lat="45.41163" lon="6.55596">
        <ele>1351.11725</ele>
        <time>2013-02-18T13:20:17Z</time>
      </trkpt>
      <trkpt lat="45.41169" lon="6.55593">
        <ele>1352.360143</ele>
        <time>2013-02-18T13:20:22Z</time>
      </trkpt>
      <trkpt lat="45.41178" lon="6.55592">
        <ele>1345.952603</ele>
        <time>2013-02-18T13:20:27Z</time>
      </trkpt>
      <trkpt lat="45.41185" lon="6.55591">
        <ele>1345.960986</ele>
        <time>2013-02-18T13:20:32Z</time>
      </trkpt>
      <trkpt lat="45.41191" lon="6.55589">
        <ele>1347.981473</ele>
        <time>2013-02-18T13:20:37Z</time>
      </trkpt>
      <trkpt lat="45.41196" lon="6.55589">
        <ele>1343.731599</ele>
        <time>2013-02-18T13:20:42Z</time>
      </trkpt>
      <trkpt lat="45.41201" lon="6.55589">
        <ele>1346.60981</ele>
        <time>2013-02-18T13:20:47Z</time>
      </trkpt>
      <trkpt lat="45.41206" lon="6.55589">
        <ele>1348.775853</ele>
        <time>2013-02-18T13:20:52Z</time>
      </trkpt>
      <trkpt lat="45.4121" lon="6.55587">
        <ele>1352.888598</ele>
        <time>2013-02-18T13:20:57Z</time>
      </trkpt>
      <trkpt lat="45.41214" lon="6.55584">
        <ele>1347.766271</ele>
        <time>2013-02-18T13:21:02Z</time>
      </trkpt>
      <trkpt lat="45.41216" lon="6.55587">
        <ele>1348.653507</ele>
        <time>2013-02-18T13:21:07Z</time>
      </trkpt>
      <trkpt lat="45.41221" lon="6.55583">
        <ele>1344.163212</ele>
        <time>2013-02-18T13:21:12Z</time>
      </trkpt>
      <trkpt lat="45.41226" lon="6.5558">
        <ele>1342.557479</ele>
        <time>2013-02-18T13:21:17Z</time>
      </trkpt>
      <trkpt lat="45.41231" lon="6.55578">
        <ele>1343.168427</ele>
        <time>2013-02-18T13:21:22Z</time>
      </trkpt>
      <trkpt lat="45.41239" lon="6.55575">
        <ele>1341.60701</ele>
        <time>2013-02-18T13:21:27Z</time>
      </trkpt>
      <trkpt lat="45.41246" lon="6.55576">
        <ele>1340.271275</ele>
        <time>2013-02-18T13:21:32Z</time>
      </trkpt>
      <trkpt lat="45.41251" lon="6.55573">
        <ele>1339.392514</ele>
        <time>2013-02-18T13:21:37Z</time>
      </trkpt>
      <trkpt lat="45.41256" lon="6.55574">
        <ele>1338.819573</ele>
        <time>2013-02-18T13:21:42Z</time>
      </trkpt>
      <trkpt lat="45.41262" lon="6.55575">
        <ele>1336.771678</ele>
        <time>2013-02-18T13:21:47Z</time>
      </trkpt>
      <trkpt lat="45.41265" lon="6.55577">
        <ele>1334.076979</ele>
        <time>2013-02-18T13:21:52Z</time>
      </trkpt>
      <trkpt lat="45.4127" lon="6.55578">
        <ele>1332.014317</ele>
        <time>2013-02-18T13:21:57Z</time>
      </trkpt>
      <trkpt lat="45.41276" lon="6.55578">
        <ele>1331.295877</ele>
        <time>2013-02-18T13:22:02Z</time>
      </trkpt>
      <trkpt lat="45.41283" lon="6.5558">
        <ele>1328.645528</ele>
        <time>2013-02-18T13:22:07Z</time>
      </trkpt>
      <trkpt lat="45.41288" lon="6.55583">
        <ele>1328.864946</ele>
        <time>2013-02-18T13:22:12Z</time>
      </trkpt>
      <trkpt lat="45.41296" lon="6.55581">
        <ele>1328.793346</ele>
        <time>2013-02-18T13:22:17Z</time>
      </trkpt>
      <trkpt lat="45.41303" lon="6.55579">
        <ele>1330.828746</ele>
        <time>2013-02-18T13:22:22Z</time>
      </trkpt>
      <trkpt lat="45.41308" lon="6.55579">
        <ele>1332.217328</ele>
        <time>2013-02-18T13:22:27Z</time>
      </trkpt>
      <trkpt lat="45.41312" lon="6.55582">
        <ele>1333.134169</ele>
        <time>2013-02-18T13:22:32Z</time>
      </trkpt>
      <trkpt lat="45.41315" lon="6.55583">
        <ele>1335.365665</ele>
        <time>2013-02-18T13:22:37Z</time>
      </trkpt>
      <trkpt lat="45.4132" lon="6.55585">
        <ele>1336.202366</ele>
        <time>2013-02-18T13:22:42Z</time>
      </trkpt>
      <trkpt lat="45.41325" lon="6.55586">
        <ele>1332.032768</ele>
        <time>2013-02-18T13:22:47Z</time>
      </trkpt>
      <trkpt lat="45.4133" lon="6.55586">
        <ele>1334.911106</ele>
        <time>2013-02-18T13:22:52Z</time>
      </trkpt>
      <trkpt lat="45.41335" lon="6.55585">
        <ele>1336.299715</ele>
        <time>2013-02-18T13:22:57Z</time>
      </trkpt>
      <trkpt lat="45.41338" lon="6.55584">
        <ele>1334.839569</ele>
        <time>2013-02-18T13:23:03Z</time>
      </trkpt>
      <trkpt lat="45.41344" lon="6.55585">
        <ele>1336.323128</ele>
        <time>2013-02-18T13:23:08Z</time>
      </trkpt>
      <trkpt lat="45.41351" lon="6.55583">
        <ele>1335.539421</ele>
        <time>2013-02-18T13:23:13Z</time>
      </trkpt>
      <trkpt lat="45.41357" lon="6.55581">
        <ele>1327.612849</ele>
        <time>2013-02-18T13:23:18Z</time>
      </trkpt>
      <trkpt lat="45.41365" lon="6.55577">
        <ele>1328.790648</ele>
        <time>2013-02-18T13:23:23Z</time>
      </trkpt>
      <trkpt lat="45.41369" lon="6.55577">
        <ele>1330.244637</ele>
        <time>2013-02-18T13:23:28Z</time>
      </trkpt>
      <trkpt lat="45.41374" lon="6.55579">
        <ele>1330.38399</ele>
        <time>2013-02-18T13:23:33Z</time>
      </trkpt>
      <trkpt lat="45.41378" lon="6.55578">
        <ele>1328.938668</ele>
        <time>2013-02-18T13:23:38Z</time>
      </trkpt>
      <trkpt lat="45.41383" lon="6.55577">
        <ele>1332.449107</ele>
        <time>2013-02-18T13:23:43Z</time>
      </trkpt>
      <trkpt lat="45.41391" lon="6.55576">
        <ele>1330.25587</ele>
        <time>2013-02-18T13:23:48Z</time>
      </trkpt>
      <trkpt lat="45.41401" lon="6.55574">
        <ele>1330.214043</ele>
        <time>2013-02-18T13:23:53Z</time>
      </trkpt>
      <trkpt lat="45.41409" lon="6.55569">
        <ele>1329.902183</ele>
        <time>2013-02-18T13:23:58Z</time>
      </trkpt>
      <trkpt lat="45.41413" lon="6.55564">
        <ele>1328.216456</ele>
        <time>2013-02-18T13:24:03Z</time>
      </trkpt>
      <trkpt lat="45.41421" lon="6.55563">
        <ele>1323.916289</ele>
        <time>2013-02-18T13:24:08Z</time>
      </trkpt>
      <trkpt lat="45.41428" lon="6.55565">
        <ele>1323.373121</ele>
        <time>2013-02-18T13:24:13Z</time>
      </trkpt>
      <trkpt lat="45.41432" lon="6.55564">
        <ele>1317.618938</ele>
        <time>2013-02-18T13:24:18Z</time>
      </trkpt>
      <trkpt lat="45.41435" lon="6.55565">
        <ele>1318.440916</ele>
        <time>2013-02-18T13:24:23Z</time>
      </trkpt>
      <trkpt lat="45.41441" lon="6.55564">
        <ele>1319.84445</ele>
        <time>2013-02-18T13:24:28Z</time>
      </trkpt>
      <trkpt lat="45.41449" lon="6.55567">
        <ele>1315.087372</ele>
        <time>2013-02-18T13:24:33Z</time>
      </trkpt>
      <trkpt lat="45.41455" lon="6.55567">
        <ele>1315.77872</ele>
        <time>2013-02-18T13:24:38Z</time>
      </trkpt>
      <trkpt lat="45.41462" lon="6.55566">
        <ele>1313.665725</ele>
        <time>2013-02-18T13:24:43Z</time>
      </trkpt>
      <trkpt lat="45.41468" lon="6.55566">
        <ele>1310.840535</ele>
        <time>2013-02-18T13:24:48Z</time>
      </trkpt>
      <trkpt lat="45.41476" lon="6.55566">
        <ele>1312.258938</ele>
        <time>2013-02-18T13:24:53Z</time>
      </trkpt>
      <trkpt lat="45.41482" lon="6.55564">
        <ele>1311.460588</ele>
        <time>2013-02-18T13:24:58Z</time>
      </trkpt>
      <trkpt lat="45.41488" lon="6.55561">
        <ele>1302.124585</ele>
        <time>2013-02-18T13:25:03Z</time>
      </trkpt>
      <trkpt lat="45.41487" lon="6.55562">
        <ele>1299.290582</ele>
        <time>2013-02-18T13:25:10Z</time>
      </trkpt>
      <trkpt lat="45.41485" lon="6.55565">
        <ele>1302.335351</ele>
        <time>2013-02-18T13:25:15Z</time>
      </trkpt>
      <trkpt lat="45.41487" lon="6.55565">
        <ele>1304.471976</ele>
        <time>2013-02-18T13:25:24Z</time>
      </trkpt>
      <trkpt lat="45.41493" lon="6.55565">
        <ele>1308.062681</ele>
        <time>2013-02-18T13:25:29Z</time>
      </trkpt>
      <trkpt lat="45.41498" lon="6.55566">
        <ele>1308.83422</ele>
        <time>2013-02-18T13:25:34Z</time>
      </trkpt>
      <trkpt lat="45.41504" lon="6.55568">
        <ele>1311.095493</ele>
        <time>2013-02-18T13:25:39Z</time>
      </trkpt>
      <trkpt lat="45.4151" lon="6.55567">
        <ele>1310.377317</ele>
        <time>2013-02-18T13:25:44Z</time>
      </trkpt>
      <trkpt lat="45.41514" lon="6.5557">
        <ele>1313.401283</ele>
        <time>2013-02-18T13:25:49Z</time>
      </trkpt>
      <trkpt lat="45.41519" lon="6.55569">
        <ele>1314.790077</ele>
        <time>2013-02-18T13:25:54Z</time>
      </trkpt>
      <trkpt lat="45.41525" lon="6.55567">
        <ele>1314.703987</ele>
        <time>2013-02-18T13:25:59Z</time>
      </trkpt>
      <trkpt lat="45.41531" lon="6.55569">
        <ele>1307.018045</ele>
        <time>2013-02-18T13:26:04Z</time>
      </trkpt>
      <trkpt lat="45.41534" lon="6.55568">
        <ele>1301.329241</ele>
        <time>2013-02-18T13:26:09Z</time>
      </trkpt>
      <trkpt lat="45.41533" lon="6.55571">
        <ele>1294.441596</ele>
        <time>2013-02-18T13:26:14Z</time>
      </trkpt>
      <trkpt lat="45.41536" lon="6.55573">
        <ele>1298.78018</ele>
        <time>2013-02-18T13:26:19Z</time>
      </trkpt>
      <trkpt lat="45.41544" lon="6.55572">
        <ele>1303.017856</ele>
        <time>2013-02-18T13:26:24Z</time>
      </trkpt>
      <trkpt lat="45.4155" lon="6.55572">
        <ele>1304.501668</ele>
        <time>2013-02-18T13:26:29Z</time>
      </trkpt>
      <trkpt lat="45.41556" lon="6.55573">
        <ele>1308.092442</ele>
        <time>2013-02-18T13:26:34Z</time>
      </trkpt>
      <trkpt lat="45.4156" lon="6.55574">
        <ele>1310.338931</ele>
        <time>2013-02-18T13:26:39Z</time>
      </trkpt>
      <trkpt lat="45.41567" lon="6.55573">
        <ele>1315.27401</ele>
        <time>2013-02-18T13:26:44Z</time>
      </trkpt>
      <trkpt lat="45.41572" lon="6.55572">
        <ele>1318.072443</ele>
        <time>2013-02-18T13:26:49Z</time>
      </trkpt>
      <trkpt lat="45.41582" lon="6.55575">
        <ele>1313.330428</ele>
        <time>2013-02-18T13:26:54Z</time>
      </trkpt>
      <trkpt lat="45.41587" lon="6.55575">
        <ele>1312.612337</ele>
        <time>2013-02-18T13:26:59Z</time>
      </trkpt>
      <trkpt lat="45.41592" lon="6.55572">
        <ele>1313.208841</ele>
        <time>2013-02-18T13:27:04Z</time>
      </trkpt>
      <trkpt lat="45.41597" lon="6.55568">
        <ele>1312.235481</ele>
        <time>2013-02-18T13:27:09Z</time>
      </trkpt>
      <trkpt lat="45.41602" lon="6.55563">
        <ele>1311.974349</ele>
        <time>2013-02-18T13:27:14Z</time>
      </trkpt>
      <trkpt lat="45.41607" lon="6.5556">
        <ele>1311.081142</ele>
        <time>2013-02-18T13:27:19Z</time>
      </trkpt>
      <trkpt lat="45.41612" lon="6.55556">
        <ele>1309.410437</ele>
        <time>2013-02-18T13:27:24Z</time>
      </trkpt>
      <trkpt lat="45.41617" lon="6.55554">
        <ele>1307.900019</ele>
        <time>2013-02-18T13:27:29Z</time>
      </trkpt>
      <trkpt lat="45.41624" lon="6.55551">
        <ele>1309.143503</ele>
        <time>2013-02-18T13:27:34Z</time>
      </trkpt>
      <trkpt lat="45.41628" lon="6.55549">
        <ele>1306.920871</ele>
        <time>2013-02-18T13:27:39Z</time>
      </trkpt>
      <trkpt lat="45.41633" lon="6.55547">
        <ele>1307.517417</ele>
        <time>2013-02-18T13:27:44Z</time>
      </trkpt>
      <trkpt lat="45.41637" lon="6.55546">
        <ele>1307.481878</ele>
        <time>2013-02-18T13:27:49Z</time>
      </trkpt>
      <trkpt lat="45.41641" lon="6.55543">
        <ele>1307.286067</ele>
        <time>2013-02-18T13:27:54Z</time>
      </trkpt>
      <trkpt lat="45.41645" lon="6.55544">
        <ele>1308.123037</ele>
        <time>2013-02-18T13:27:59Z</time>
      </trkpt>
      <trkpt lat="45.41648" lon="6.55546">
        <ele>1308.232913</ele>
        <time>2013-02-18T13:28:04Z</time>
      </trkpt>
      <trkpt lat="45.4165" lon="6.55545">
        <ele>1308.182515</ele>
        <time>2013-02-18T13:28:09Z</time>
      </trkpt>
      <trkpt lat="45.41653" lon="6.55546">
        <ele>1306.105312</ele>
        <time>2013-02-18T13:28:15Z</time>
      </trkpt>
      <trkpt lat="45.41659" lon="6.55545">
        <ele>1306.084661</ele>
        <time>2013-02-18T13:28:20Z</time>
      </trkpt>
      <trkpt lat="45.41661" lon="6.55545">
        <ele>1307.523992</ele>
        <time>2013-02-18T13:28:25Z</time>
      </trkpt>
      <trkpt lat="45.41664" lon="6.55544">
        <ele>1306.064015</ele>
        <time>2013-02-18T13:28:32Z</time>
      </trkpt>
      <trkpt lat="45.41665" lon="6.55542">
        <ele>1308.025557</ele>
        <time>2013-02-18T13:28:38Z</time>
      </trkpt>
      <trkpt lat="45.41661" lon="6.55533">
        <ele>1310.319291</ele>
        <time>2013-02-18T13:28:43Z</time>
      </trkpt>
      <trkpt lat="45.41656" lon="6.55527">
        <ele>1312.046204</ele>
        <time>2013-02-18T13:28:48Z</time>
      </trkpt>
      <trkpt lat="45.41651" lon="6.55525">
        <ele>1313.316172</ele>
        <time>2013-02-18T13:28:53Z</time>
      </trkpt>
      <trkpt lat="45.41647" lon="6.55521">
        <ele>1313.031159</ele>
        <time>2013-02-18T13:28:58Z</time>
      </trkpt>
      <trkpt lat="45.41645" lon="6.5552">
        <ele>1311.5117</ele>
        <time>2013-02-18T13:29:03Z</time>
      </trkpt>
      <trkpt lat="45.4164" lon="6.55518">
        <ele>1312.781681</ele>
        <time>2013-02-18T13:29:08Z</time>
      </trkpt>
      <trkpt lat="45.41635" lon="6.55516">
        <ele>1311.94472</ele>
        <time>2013-02-18T13:29:13Z</time>
      </trkpt>
      <trkpt lat="45.41635" lon="6.55515">
        <ele>1308.333186</ele>
        <time>2013-02-18T13:29:19Z</time>
      </trkpt>
      <trkpt lat="45.41641" lon="6.55516">
        <ele>1306.997933</ele>
        <time>2013-02-18T13:29:24Z</time>
      </trkpt>
      <trkpt lat="45.41647" lon="6.55518">
        <ele>1305.030594</ele>
        <time>2013-02-18T13:29:29Z</time>
      </trkpt>
      <trkpt lat="45.41654" lon="6.5552">
        <ele>1304.487719</ele>
        <time>2013-02-18T13:29:34Z</time>
      </trkpt>
      <trkpt lat="45.41659" lon="6.55522">
        <ele>1303.929981</ele>
        <time>2013-02-18T13:29:39Z</time>
      </trkpt>
      <trkpt lat="45.41667" lon="6.55519">
        <ele>1302.369229</ele>
        <time>2013-02-18T13:29:44Z</time>
      </trkpt>
      <trkpt lat="45.41675" lon="6.5552">
        <ele>1302.458479</ele>
        <time>2013-02-18T13:29:49Z</time>
      </trkpt>
      <trkpt lat="45.41681" lon="6.55519">
        <ele>1305.271901</ele>
        <time>2013-02-18T13:29:54Z</time>
      </trkpt>
      <trkpt lat="45.41688" lon="6.55519">
        <ele>1305.978391</ele>
        <time>2013-02-18T13:29:59Z</time>
      </trkpt>
      <trkpt lat="45.41695" lon="6.55516">
        <ele>1305.812389</ele>
        <time>2013-02-18T13:30:04Z</time>
      </trkpt>
      <trkpt lat="45.41701" lon="6.55515">
        <ele>1305.094429</ele>
        <time>2013-02-18T13:30:09Z</time>
      </trkpt>
      <trkpt lat="45.41707" lon="6.55513">
        <ele>1309.237337</ele>
        <time>2013-02-18T13:30:14Z</time>
      </trkpt>
      <trkpt lat="45.41712" lon="6.55509">
        <ele>1311.163414</ele>
        <time>2013-02-18T13:30:19Z</time>
      </trkpt>
      <trkpt lat="45.41717" lon="6.55508">
        <ele>1309.653105</ele>
        <time>2013-02-18T13:30:24Z</time>
      </trkpt>
      <trkpt lat="45.41721" lon="6.55505">
        <ele>1311.659324</ele>
        <time>2013-02-18T13:30:29Z</time>
      </trkpt>
      <trkpt lat="45.41727" lon="6.55504">
        <ele>1310.861262</ele>
        <time>2013-02-18T13:30:34Z</time>
      </trkpt>
      <trkpt lat="45.41732" lon="6.55502">
        <ele>1308.638731</ele>
        <time>2013-02-18T13:30:39Z</time>
      </trkpt>
      <trkpt lat="45.41738" lon="6.55499">
        <ele>1307.760551</ele>
        <time>2013-02-18T13:30:44Z</time>
      </trkpt>
      <trkpt lat="45.41747" lon="6.55492">
        <ele>1303.852601</ele>
        <time>2013-02-18T13:30:49Z</time>
      </trkpt>
      <trkpt lat="45.41752" lon="6.55489">
        <ele>1302.974441</ele>
        <time>2013-02-18T13:30:54Z</time>
      </trkpt>
      <trkpt lat="45.41759" lon="6.55487">
        <ele>1302.888659</ele>
        <time>2013-02-18T13:30:59Z</time>
      </trkpt>
      <trkpt lat="45.41766" lon="6.55484">
        <ele>1303.434999</ele>
        <time>2013-02-18T13:31:04Z</time>
      </trkpt>
      <trkpt lat="45.41773" lon="6.55482">
        <ele>1304.758822</ele>
        <time>2013-02-18T13:31:09Z</time>
      </trkpt>
      <trkpt lat="45.41779" lon="6.55482">
        <ele>1304.753195</ele>
        <time>2013-02-18T13:31:14Z</time>
      </trkpt>
      <trkpt lat="45.41785" lon="6.55482">
        <ele>1305.525046</ele>
        <time>2013-02-18T13:31:19Z</time>
      </trkpt>
      <trkpt lat="45.41791" lon="6.55483">
        <ele>1304.189975</ele>
        <time>2013-02-18T13:31:24Z</time>
      </trkpt>
      <trkpt lat="45.41799" lon="6.55485">
        <ele>1305.769119</ele>
        <time>2013-02-18T13:31:29Z</time>
      </trkpt>
      <trkpt lat="45.41804" lon="6.55486">
        <ele>1305.131405</ele>
        <time>2013-02-18T13:31:34Z</time>
      </trkpt>
      <trkpt lat="45.41812" lon="6.55488">
        <ele>1305.300983</ele>
        <time>2013-02-18T13:31:39Z</time>
      </trkpt>
      <trkpt lat="45.41817" lon="6.5549">
        <ele>1303.333825</ele>
        <time>2013-02-18T13:31:44Z</time>
      </trkpt>
      <trkpt lat="45.41823" lon="6.55493">
        <ele>1301.366674</ele>
        <time>2013-02-18T13:31:49Z</time>
      </trkpt>
      <trkpt lat="45.41831" lon="6.55492">
        <ele>1301.376023</ele>
        <time>2013-02-18T13:31:54Z</time>
      </trkpt>
      <trkpt lat="45.41838" lon="6.5549">
        <ele>1302.00259</ele>
        <time>2013-02-18T13:31:59Z</time>
      </trkpt>
      <trkpt lat="45.41844" lon="6.55489">
        <ele>1304.103966</ele>
        <time>2013-02-18T13:32:04Z</time>
      </trkpt>
      <trkpt lat="45.41847" lon="6.55487">
        <ele>1304.685796</ele>
        <time>2013-02-18T13:32:09Z</time>
      </trkpt>
      <trkpt lat="45.41851" lon="6.55485">
        <ele>1305.979883</ele>
        <time>2013-02-18T13:32:14Z</time>
      </trkpt>
      <trkpt lat="45.41859" lon="6.55481">
        <ele>1307.158479</ele>
        <time>2013-02-18T13:32:19Z</time>
      </trkpt>
      <trkpt lat="45.41863" lon="6.55477">
        <ele>1310.494291</ele>
        <time>2013-02-18T13:32:24Z</time>
      </trkpt>
      <trkpt lat="45.41868" lon="6.55472">
        <ele>1313.749982</ele>
        <time>2013-02-18T13:32:29Z</time>
      </trkpt>
      <trkpt lat="45.41874" lon="6.5547">
        <ele>1312.952093</ele>
        <time>2013-02-18T13:32:34Z</time>
      </trkpt>
      <trkpt lat="45.41878" lon="6.55468">
        <ele>1314.246204</ele>
        <time>2013-02-18T13:32:39Z</time>
      </trkpt>
      <trkpt lat="45.41882" lon="6.55465">
        <ele>1314.050606</ele>
        <time>2013-02-18T13:32:44Z</time>
      </trkpt>
      <trkpt lat="45.41887" lon="6.5546">
        <ele>1313.077559</ele>
        <time>2013-02-18T13:32:49Z</time>
      </trkpt>
      <trkpt lat="45.41892" lon="6.55456">
        <ele>1312.104518</ele>
        <time>2013-02-18T13:32:54Z</time>
      </trkpt>
      <trkpt lat="45.41898" lon="6.55449">
        <ele>1306.757405</ele>
        <time>2013-02-18T13:32:59Z</time>
      </trkpt>
      <trkpt lat="45.41904" lon="6.55444">
        <ele>1306.431447</ele>
        <time>2013-02-18T13:33:04Z</time>
      </trkpt>
      <trkpt lat="45.41913" lon="6.55441">
        <ele>1306.992936</ele>
        <time>2013-02-18T13:33:09Z</time>
      </trkpt>
      <trkpt lat="45.41919" lon="6.55437">
        <ele>1307.52457</ele>
        <time>2013-02-18T13:33:14Z</time>
      </trkpt>
      <trkpt lat="45.41925" lon="6.55434">
        <ele>1310.178061</ele>
        <time>2013-02-18T13:33:19Z</time>
      </trkpt>
      <trkpt lat="45.41932" lon="6.55431">
        <ele>1307.193211</ele>
        <time>2013-02-18T13:33:24Z</time>
      </trkpt>
      <trkpt lat="45.41938" lon="6.55429">
        <ele>1307.107665</ele>
        <time>2013-02-18T13:33:29Z</time>
      </trkpt>
      <trkpt lat="45.41946" lon="6.55424">
        <ele>1304.67486</ele>
        <time>2013-02-18T13:33:34Z</time>
      </trkpt>
      <trkpt lat="45.41952" lon="6.55421">
        <ele>1303.796949</ele>
        <time>2013-02-18T13:33:39Z</time>
      </trkpt>
      <trkpt lat="45.41958" lon="6.55418">
        <ele>1302.919045</ele>
        <time>2013-02-18T13:33:44Z</time>
      </trkpt>
      <trkpt lat="45.41963" lon="6.55416">
        <ele>1303.530855</ele>
        <time>2013-02-18T13:33:49Z</time>
      </trkpt>
      <trkpt lat="45.41969" lon="6.55412">
        <ele>1303.270171</ele>
        <time>2013-02-18T13:33:54Z</time>
      </trkpt>
      <trkpt lat="45.41975" lon="6.55411">
        <ele>1303.264791</ele>
        <time>2013-02-18T13:33:59Z</time>
      </trkpt>
      <trkpt lat="45.41977" lon="6.55409">
        <ele>1302.422187</ele>
        <time>2013-02-18T13:34:06Z</time>
      </trkpt>
      <trkpt lat="45.4198" lon="6.55408">
        <ele>1299.552792</ele>
        <time>2013-02-18T13:34:11Z</time>
      </trkpt>
      <trkpt lat="45.41984" lon="6.55406">
        <ele>1299.43741</ele>
        <time>2013-02-18T13:34:27Z</time>
      </trkpt>
      <trkpt lat="45.41991" lon="6.55407">
        <ele>1300.936705</ele>
        <time>2013-02-18T13:34:32Z</time>
      </trkpt>
      <trkpt lat="45.41999" lon="6.55404">
        <ele>1300.786076</ele>
        <time>2013-02-18T13:34:37Z</time>
      </trkpt>
      <trkpt lat="45.42007" lon="6.55401">
        <ele>1303.454636</ele>
        <time>2013-02-18T13:34:42Z</time>
      </trkpt>
      <trkpt lat="45.42012" lon="6.55399">
        <ele>1300.535057</ele>
        <time>2013-02-18T13:34:47Z</time>
      </trkpt>
      <trkpt lat="45.42018" lon="6.55397">
        <ele>1299.737344</ele>
        <time>2013-02-18T13:34:52Z</time>
      </trkpt>
      <trkpt lat="45.42025" lon="6.55395">
        <ele>1298.242325</ele>
        <time>2013-02-18T13:34:57Z</time>
      </trkpt>
      <trkpt lat="45.42031" lon="6.55392">
        <ele>1297.364513</ele>
        <time>2013-02-18T13:35:02Z</time>
      </trkpt>
      <trkpt lat="45.42038" lon="6.55392">
        <ele>1294.554998</ele>
        <time>2013-02-18T13:35:07Z</time>
      </trkpt>
      <trkpt lat="45.42045" lon="6.55388">
        <ele>1294.309367</ele>
        <time>2013-02-18T13:35:12Z</time>
      </trkpt>
      <trkpt lat="45.42051" lon="6.55385">
        <ele>1294.143858</ele>
        <time>2013-02-18T13:35:17Z</time>
      </trkpt>
      <trkpt lat="45.42057" lon="6.5538">
        <ele>1293.883278</ele>
        <time>2013-02-18T13:35:22Z</time>
      </trkpt>
      <trkpt lat="45.42062" lon="6.55376">
        <ele>1292.910428</ele>
        <time>2013-02-18T13:35:27Z</time>
      </trkpt>
      <trkpt lat="45.42066" lon="6.5537">
        <ele>1292.554782</ele>
        <time>2013-02-18T13:35:32Z</time>
      </trkpt>
      <trkpt lat="45.42071" lon="6.55362">
        <ele>1292.053895</ele>
        <time>2013-02-18T13:35:37Z</time>
      </trkpt>
      <trkpt lat="45.42076" lon="6.55355">
        <ele>1290.920849</ele>
        <time>2013-02-18T13:35:42Z</time>
      </trkpt>
      <trkpt lat="45.42081" lon="6.5535">
        <ele>1289.948027</ele>
        <time>2013-02-18T13:35:47Z</time>
      </trkpt>
      <trkpt lat="45.42087" lon="6.55346">
        <ele>1290.399775</ele>
        <time>2013-02-18T13:35:52Z</time>
      </trkpt>
      <trkpt lat="45.42093" lon="6.55342">
        <ele>1290.931638</ele>
        <time>2013-02-18T13:35:57Z</time>
      </trkpt>
      <trkpt lat="45.42099" lon="6.55341">
        <ele>1290.134026</ele>
        <time>2013-02-18T13:36:02Z</time>
      </trkpt>
      <trkpt lat="45.42105" lon="6.55337">
        <ele>1291.378189</ele>
        <time>2013-02-18T13:36:07Z</time>
      </trkpt>
      <trkpt lat="45.42112" lon="6.55335">
        <ele>1288.393594</ele>
        <time>2013-02-18T13:36:12Z</time>
      </trkpt>
      <trkpt lat="45.42116" lon="6.55336">
        <ele>1287.82134</ele>
        <time>2013-02-18T13:36:17Z</time>
      </trkpt>
      <trkpt lat="45.42122" lon="6.55338">
        <ele>1287.264073</ele>
        <time>2013-02-18T13:36:22Z</time>
      </trkpt>
      <trkpt lat="45.42127" lon="6.55342">
        <ele>1286.786918</ele>
        <time>2013-02-18T13:36:27Z</time>
      </trkpt>
      <trkpt lat="45.42133" lon="6.55344">
        <ele>1284.820076</ele>
        <time>2013-02-18T13:36:32Z</time>
      </trkpt>
      <trkpt lat="45.42139" lon="6.55344">
        <ele>1285.592311</ele>
        <time>2013-02-18T13:36:37Z</time>
      </trkpt>
      <trkpt lat="45.42144" lon="6.55348">
        <ele>1285.115177</ele>
        <time>2013-02-18T13:36:42Z</time>
      </trkpt>
      <trkpt lat="45.42151" lon="6.55351">
        <ele>1283.243451</ele>
        <time>2013-02-18T13:36:47Z</time>
      </trkpt>
      <trkpt lat="45.42154" lon="6.55352">
        <ele>1281.863845</ele>
        <time>2013-02-18T13:36:53Z</time>
      </trkpt>
      <trkpt lat="45.42163" lon="6.55357">
        <ele>1278.692639</ele>
        <time>2013-02-18T13:36:58Z</time>
      </trkpt>
      <trkpt lat="45.42169" lon="6.55361">
        <ele>1279.007934</ele>
        <time>2013-02-18T13:37:03Z</time>
      </trkpt>
      <trkpt lat="45.42176" lon="6.55366">
        <ele>1281.44512</ele>
        <time>2013-02-18T13:37:08Z</time>
      </trkpt>
      <trkpt lat="45.42179" lon="6.5537">
        <ele>1283.140026</ele>
        <time>2013-02-18T13:37:13Z</time>
      </trkpt>
      <trkpt lat="45.42185" lon="6.55372">
        <ele>1283.992423</ele>
        <time>2013-02-18T13:37:18Z</time>
      </trkpt>
      <trkpt lat="45.42191" lon="6.55375">
        <ele>1282.818053</ele>
        <time>2013-02-18T13:37:23Z</time>
      </trkpt>
      <trkpt lat="45.42197" lon="6.55378">
        <ele>1283.05328</ele>
        <time>2013-02-18T13:37:28Z</time>
      </trkpt>
      <trkpt lat="45.42205" lon="6.55378">
        <ele>1284.472779</ele>
        <time>2013-02-18T13:37:33Z</time>
      </trkpt>
      <trkpt lat="45.42209" lon="6.5538">
        <ele>1283.900612</ele>
        <time>2013-02-18T13:37:38Z</time>
      </trkpt>
      <trkpt lat="45.42216" lon="6.55382">
        <ele>1284.055753</ele>
        <time>2013-02-18T13:37:43Z</time>
      </trkpt>
      <trkpt lat="45.42222" lon="6.55386">
        <ele>1282.961533</ele>
        <time>2013-02-18T13:37:48Z</time>
      </trkpt>
      <trkpt lat="45.42227" lon="6.55389">
        <ele>1284.591379</ele>
        <time>2013-02-18T13:37:53Z</time>
      </trkpt>
      <trkpt lat="45.42232" lon="6.55393">
        <ele>1284.114354</ele>
        <time>2013-02-18T13:37:58Z</time>
      </trkpt>
      <trkpt lat="45.42237" lon="6.55394">
        <ele>1279.945638</ele>
        <time>2013-02-18T13:38:03Z</time>
      </trkpt>
      <trkpt lat="45.42246" lon="6.55393">
        <ele>1279.970622</ele>
        <time>2013-02-18T13:38:08Z</time>
      </trkpt>
      <trkpt lat="45.42252" lon="6.55393">
        <ele>1280.662875</ele>
        <time>2013-02-18T13:38:13Z</time>
      </trkpt>
      <trkpt lat="45.42256" lon="6.55392">
        <ele>1280.627814</ele>
        <time>2013-02-18T13:38:18Z</time>
      </trkpt>
      <trkpt lat="45.42264" lon="6.5539">
        <ele>1280.557701</ele>
        <time>2013-02-18T13:38:23Z</time>
      </trkpt>
      <trkpt lat="45.4227" lon="6.55387">
        <ele>1278.982882</ele>
        <time>2013-02-18T13:38:28Z</time>
      </trkpt>
      <trkpt lat="45.42276" lon="6.55385">
        <ele>1281.701924</ele>
        <time>2013-02-18T13:38:33Z</time>
      </trkpt>
      <trkpt lat="45.4228" lon="6.55382">
        <ele>1282.218969</ele>
        <time>2013-02-18T13:38:38Z</time>
      </trkpt>
      <trkpt lat="45.42286" lon="6.55377">
        <ele>1283.368217</ele>
        <time>2013-02-18T13:38:43Z</time>
      </trkpt>
      <trkpt lat="45.42291" lon="6.55375">
        <ele>1283.980406</ele>
        <time>2013-02-18T13:38:48Z</time>
      </trkpt>
      <trkpt lat="45.42297" lon="6.55374">
        <ele>1285.369991</ele>
        <time>2013-02-18T13:38:53Z</time>
      </trkpt>
      <trkpt lat="45.42302" lon="6.55373">
        <ele>1287.471889</ele>
        <time>2013-02-18T13:38:58Z</time>
      </trkpt>
      <trkpt lat="45.42308" lon="6.55374">
        <ele>1288.244313</ele>
        <time>2013-02-18T13:39:03Z</time>
      </trkpt>
      <trkpt lat="45.42315" lon="6.55371">
        <ele>1287.381865</ele>
        <time>2013-02-18T13:39:08Z</time>
      </trkpt>
      <trkpt lat="45.42323" lon="6.55366">
        <ele>1285.661937</ele>
        <time>2013-02-18T13:39:13Z</time>
      </trkpt>
      <trkpt lat="45.4233" lon="6.55364">
        <ele>1286.986483</ele>
        <time>2013-02-18T13:39:18Z</time>
      </trkpt>
      <trkpt lat="45.42336" lon="6.55362">
        <ele>1287.598725</ele>
        <time>2013-02-18T13:39:23Z</time>
      </trkpt>
      <trkpt lat="45.42342" lon="6.55355">
        <ele>1285.783691</ele>
        <time>2013-02-18T13:39:28Z</time>
      </trkpt>
      <trkpt lat="45.42348" lon="6.55348">
        <ele>1283.256356</ele>
        <time>2013-02-18T13:39:33Z</time>
      </trkpt>
      <trkpt lat="45.42354" lon="6.55345">
        <ele>1283.076205</ele>
        <time>2013-02-18T13:39:38Z</time>
      </trkpt>
      <trkpt lat="45.42359" lon="6.55343">
        <ele>1281.566574</ele>
        <time>2013-02-18T13:39:43Z</time>
      </trkpt>
      <trkpt lat="45.42364" lon="6.5534">
        <ele>1282.796023</ele>
        <time>2013-02-18T13:39:48Z</time>
      </trkpt>
      <trkpt lat="45.42368" lon="6.55338">
        <ele>1283.378221</ele>
        <time>2013-02-18T13:39:53Z</time>
      </trkpt>
      <trkpt lat="45.42374" lon="6.55333">
        <ele>1284.542625</ele>
        <time>2013-02-18T13:39:58Z</time>
      </trkpt>
      <trkpt lat="45.42378" lon="6.55331">
        <ele>1284.427559</ele>
        <time>2013-02-18T13:40:03Z</time>
      </trkpt>
      <trkpt lat="45.42384" lon="6.55326">
        <ele>1281.268065</ele>
        <time>2013-02-18T13:40:08Z</time>
      </trkpt>
      <trkpt lat="45.4239" lon="6.55319">
        <ele>1278.740798</ele>
        <time>2013-02-18T13:40:13Z</time>
      </trkpt>
      <trkpt lat="45.42394" lon="6.55316">
        <ele>1277.13606</ele>
        <time>2013-02-18T13:40:18Z</time>
      </trkpt>
      <trkpt lat="45.424" lon="6.55313">
        <ele>1276.258696</ele>
        <time>2013-02-18T13:40:23Z</time>
      </trkpt>
      <trkpt lat="45.42405" lon="6.55311">
        <ele>1277.568295</ele>
        <time>2013-02-18T13:40:28Z</time>
      </trkpt>
      <trkpt lat="45.4241" lon="6.55309">
        <ele>1276.058723</ele>
        <time>2013-02-18T13:40:33Z</time>
      </trkpt>
      <trkpt lat="45.42415" lon="6.55307">
        <ele>1276.656011</ele>
        <time>2013-02-18T13:40:38Z</time>
      </trkpt>
      <trkpt lat="45.42421" lon="6.55308">
        <ele>1275.321701</ele>
        <time>2013-02-18T13:40:43Z</time>
      </trkpt>
      <trkpt lat="45.42426" lon="6.55308">
        <ele>1275.381929</ele>
        <time>2013-02-18T13:40:48Z</time>
      </trkpt>
      <trkpt lat="45.42433" lon="6.55306">
        <ele>1276.009351</ele>
        <time>2013-02-18T13:40:53Z</time>
      </trkpt>
      <trkpt lat="45.42441" lon="6.55304">
        <ele>1274.449833</ele>
        <time>2013-02-18T13:40:58Z</time>
      </trkpt>
      <trkpt lat="45.42449" lon="6.55302">
        <ele>1274.380013</ele>
        <time>2013-02-18T13:41:03Z</time>
      </trkpt>
      <trkpt lat="45.42454" lon="6.55301">
        <ele>1274.360172</ele>
        <time>2013-02-18T13:41:08Z</time>
      </trkpt>
      <trkpt lat="45.42459" lon="6.55303">
        <ele>1275.910117</ele>
        <time>2013-02-18T13:41:13Z</time>
      </trkpt>
      <trkpt lat="45.42463" lon="6.55306">
        <ele>1278.934688</ele>
        <time>2013-02-18T13:41:18Z</time>
      </trkpt>
      <trkpt lat="45.42469" lon="6.55302">
        <ele>1280.179324</ele>
        <time>2013-02-18T13:41:23Z</time>
      </trkpt>
      <trkpt lat="45.42475" lon="6.55302">
        <ele>1279.462243</ele>
        <time>2013-02-18T13:41:28Z</time>
      </trkpt>
      <trkpt lat="45.42483" lon="6.55296">
        <ele>1277.742598</ele>
        <time>2013-02-18T13:41:33Z</time>
      </trkpt>
      <trkpt lat="45.42489" lon="6.55292">
        <ele>1278.194836</ele>
        <time>2013-02-18T13:41:38Z</time>
      </trkpt>
      <trkpt lat="45.42494" lon="6.55289">
        <ele>1277.302515</ele>
        <time>2013-02-18T13:41:43Z</time>
      </trkpt>
      <trkpt lat="45.42499" lon="6.55286">
        <ele>1277.122531</ele>
        <time>2013-02-18T13:41:48Z</time>
      </trkpt>
      <trkpt lat="45.42504" lon="6.55281">
        <ele>1277.559716</ele>
        <time>2013-02-18T13:41:53Z</time>
      </trkpt>
      <trkpt lat="45.42509" lon="6.55278">
        <ele>1275.970156</ele>
        <time>2013-02-18T13:41:58Z</time>
      </trkpt>
      <trkpt lat="45.42515" lon="6.5527">
        <ele>1272.650644</ele>
        <time>2013-02-18T13:42:03Z</time>
      </trkpt>
      <trkpt lat="45.4252" lon="6.55265">
        <ele>1273.800185</ele>
        <time>2013-02-18T13:42:08Z</time>
      </trkpt>
      <trkpt lat="45.42525" lon="6.55261">
        <ele>1274.949734</ele>
        <time>2013-02-18T13:42:13Z</time>
      </trkpt>
      <trkpt lat="45.42529" lon="6.55256">
        <ele>1274.674619</ele>
        <time>2013-02-18T13:42:18Z</time>
      </trkpt>
      <trkpt lat="45.42534" lon="6.55251">
        <ele>1276.521435</ele>
        <time>2013-02-18T13:42:23Z</time>
      </trkpt>
      <trkpt lat="45.4254" lon="6.55248">
        <ele>1277.053841</ele>
        <time>2013-02-18T13:42:28Z</time>
      </trkpt>
      <trkpt lat="45.42545" lon="6.55243">
        <ele>1276.081491</ele>
        <time>2013-02-18T13:42:33Z</time>
      </trkpt>
      <trkpt lat="45.42551" lon="6.55237">
        <ele>1272.14488</ele>
        <time>2013-02-18T13:42:38Z</time>
      </trkpt>
      <trkpt lat="45.42554" lon="6.55235">
        <ele>1271.31763</ele>
        <time>2013-02-18T13:42:43Z</time>
      </trkpt>
      <trkpt lat="45.42558" lon="6.55231">
        <ele>1275.351405</ele>
        <time>2013-02-18T13:42:48Z</time>
      </trkpt>
      <trkpt lat="45.42562" lon="6.55229">
        <ele>1275.933751</ele>
        <time>2013-02-18T13:42:58Z</time>
      </trkpt>
      <trkpt lat="45.42568" lon="6.55224">
        <ele>1275.688861</ele>
        <time>2013-02-18T13:43:03Z</time>
      </trkpt>
      <trkpt lat="45.42574" lon="6.5522">
        <ele>1276.14123</ele>
        <time>2013-02-18T13:43:08Z</time>
      </trkpt>
      <trkpt lat="45.42579" lon="6.55215">
        <ele>1276.578514</ele>
        <time>2013-02-18T13:43:13Z</time>
      </trkpt>
      <trkpt lat="45.42584" lon="6.55211">
        <ele>1275.606214</ele>
        <time>2013-02-18T13:43:18Z</time>
      </trkpt>
      <trkpt lat="45.42588" lon="6.55203">
        <ele>1275.883344</ele>
        <time>2013-02-18T13:43:23Z</time>
      </trkpt>
      <trkpt lat="45.42593" lon="6.55199">
        <ele>1275.608304</ele>
        <time>2013-02-18T13:43:28Z</time>
      </trkpt>
      <trkpt lat="45.42596" lon="6.55194">
        <ele>1273.211335</ele>
        <time>2013-02-18T13:43:33Z</time>
      </trkpt>
      <trkpt lat="45.42603" lon="6.5518">
        <ele>1269.506681</ele>
        <time>2013-02-18T13:43:38Z</time>
      </trkpt>
      <trkpt lat="45.42605" lon="6.55177">
        <ele>1268.584297</ele>
        <time>2013-02-18T13:43:43Z</time>
      </trkpt>
      <trkpt lat="45.42608" lon="6.55172">
        <ele>1269.703772</ele>
        <time>2013-02-18T13:43:48Z</time>
      </trkpt>
      <trkpt lat="45.42612" lon="6.55165">
        <ele>1269.268607</ele>
        <time>2013-02-18T13:43:53Z</time>
      </trkpt>
      <trkpt lat="45.42617" lon="6.55156">
        <ele>1268.056129</ele>
        <time>2013-02-18T13:43:58Z</time>
      </trkpt>
      <trkpt lat="45.42622" lon="6.5515">
        <ele>1267.003813</ele>
        <time>2013-02-18T13:44:03Z</time>
      </trkpt>
      <trkpt lat="45.42627" lon="6.55147">
        <ele>1266.111656</ele>
        <time>2013-02-18T13:44:08Z</time>
      </trkpt>
      <trkpt lat="45.42632" lon="6.55149">
        <ele>1267.661745</ele>
        <time>2013-02-18T13:44:13Z</time>
      </trkpt>
      <trkpt lat="45.42634" lon="6.55155">
        <ele>1263.783488</ele>
        <time>2013-02-18T13:44:18Z</time>
      </trkpt>
      <trkpt lat="45.42639" lon="6.55156">
        <ele>1265.333585</ele>
        <time>2013-02-18T13:44:23Z</time>
      </trkpt>
      <trkpt lat="45.42642" lon="6.55156">
        <ele>1269.592574</ele>
        <time>2013-02-18T13:44:28Z</time>
      </trkpt>
      <trkpt lat="45.42647" lon="6.5516">
        <ele>1266.296742</ele>
        <time>2013-02-18T13:44:33Z</time>
      </trkpt>
      <trkpt lat="45.42653" lon="6.55163">
        <ele>1263.000917</ele>
        <time>2013-02-18T13:44:38Z</time>
      </trkpt>
      <trkpt lat="45.4266" lon="6.55164">
        <ele>1263.091592</ele>
        <time>2013-02-18T13:44:43Z</time>
      </trkpt>
      <trkpt lat="45.42664" lon="6.55163">
        <ele>1263.056856</ele>
        <time>2013-02-18T13:44:48Z</time>
      </trkpt>
      <trkpt lat="45.42669" lon="6.55167">
        <ele>1263.27747</ele>
        <time>2013-02-18T13:44:53Z</time>
      </trkpt>
      <trkpt lat="45.42673" lon="6.55169">
        <ele>1269.121335</ele>
        <time>2013-02-18T13:44:58Z</time>
      </trkpt>
      <trkpt lat="45.42676" lon="6.55169">
        <ele>1268.454331</ele>
        <time>2013-02-18T13:45:03Z</time>
      </trkpt>
      <trkpt lat="45.42684" lon="6.55171">
        <ele>1262.209443</ele>
        <time>2013-02-18T13:45:08Z</time>
      </trkpt>
      <trkpt lat="45.42688" lon="6.55181">
        <ele>1256.479752</ele>
        <time>2013-02-18T13:45:13Z</time>
      </trkpt>
      <trkpt lat="45.4269" lon="6.55187">
        <ele>1255.420719</ele>
        <time>2013-02-18T13:45:18Z</time>
      </trkpt>
      <trkpt lat="45.42698" lon="6.5519">
        <ele>1254.262019</ele>
        <time>2013-02-18T13:45:23Z</time>
      </trkpt>
      <trkpt lat="45.42699" lon="6.55197">
        <ele>1255.389899</ele>
        <time>2013-02-18T13:45:28Z</time>
      </trkpt>
      <trkpt lat="45.42703" lon="6.55193">
        <ele>1258.014211</ele>
        <time>2013-02-18T13:45:33Z</time>
      </trkpt>
      <trkpt lat="45.42711" lon="6.55191">
        <ele>1258.642035</ele>
        <time>2013-02-18T13:45:38Z</time>
      </trkpt>
      <trkpt lat="45.42716" lon="6.55192">
        <ele>1253.064181</ele>
        <time>2013-02-18T13:45:43Z</time>
      </trkpt>
      <trkpt lat="45.42722" lon="6.55189">
        <ele>1253.596815</ele>
        <time>2013-02-18T13:45:48Z</time>
      </trkpt>
      <trkpt lat="45.42724" lon="6.55188">
        <ele>1254.956584</ele>
        <time>2013-02-18T13:45:53Z</time>
      </trkpt>
      <trkpt lat="45.42728" lon="6.55186">
        <ele>1252.719865</ele>
        <time>2013-02-18T13:46:01Z</time>
      </trkpt>
      <trkpt lat="45.42734" lon="6.55186">
        <ele>1255.614701</ele>
        <time>2013-02-18T13:46:06Z</time>
      </trkpt>
      <trkpt lat="45.4274" lon="6.5519">
        <ele>1254.440931</ele>
        <time>2013-02-18T13:46:11Z</time>
      </trkpt>
      <trkpt lat="45.42747" lon="6.55195">
        <ele>1253.362384</ele>
        <time>2013-02-18T13:46:16Z</time>
      </trkpt>
      <trkpt lat="45.42752" lon="6.55201">
        <ele>1250.924066</ele>
        <time>2013-02-18T13:46:21Z</time>
      </trkpt>
      <trkpt lat="45.42753" lon="6.55206">
        <ele>1248.440344</ele>
        <time>2013-02-18T13:46:26Z</time>
      </trkpt>
      <trkpt lat="45.4275" lon="6.55211">
        <ele>1250.139985</ele>
        <time>2013-02-18T13:46:31Z</time>
      </trkpt>
      <trkpt lat="45.42747" lon="6.55213">
        <ele>1248.147924</ele>
        <time>2013-02-18T13:46:36Z</time>
      </trkpt>
      <trkpt lat="45.42742" lon="6.55217">
        <ele>1246.918041</ele>
        <time>2013-02-18T13:46:41Z</time>
      </trkpt>
      <trkpt lat="45.42736" lon="6.5522">
        <ele>1246.385393</ele>
        <time>2013-02-18T13:46:46Z</time>
      </trkpt>
      <trkpt lat="45.42733" lon="6.55223">
        <ele>1249.414557</ele>
        <time>2013-02-18T13:46:51Z</time>
      </trkpt>
      <trkpt lat="45.42732" lon="6.55227">
        <ele>1245.410906</ele>
        <time>2013-02-18T13:46:56Z</time>
      </trkpt>
      <trkpt lat="45.42729" lon="6.55235">
        <ele>1244.451558</ele>
        <time>2013-02-18T13:47:01Z</time>
      </trkpt>
      <trkpt lat="45.42726" lon="6.55241">
        <ele>1244.124491</ele>
        <time>2013-02-18T13:47:06Z</time>
      </trkpt>
      <trkpt lat="45.42726" lon="6.55249">
        <ele>1243.195417</ele>
        <time>2013-02-18T13:47:11Z</time>
      </trkpt>
      <trkpt lat="45.42723" lon="6.55254">
        <ele>1239.256735</ele>
        <time>2013-02-18T13:47:16Z</time>
      </trkpt>
      <trkpt lat="45.42722" lon="6.5526">
        <ele>1240.354401</ele>
        <time>2013-02-18T13:47:21Z</time>
      </trkpt>
      <trkpt lat="45.42719" lon="6.55265">
        <ele>1241.341724</ele>
        <time>2013-02-18T13:47:26Z</time>
      </trkpt>
      <trkpt lat="45.42717" lon="6.5527">
        <ele>1239.525002</ele>
        <time>2013-02-18T13:47:31Z</time>
      </trkpt>
      <trkpt lat="45.42714" lon="6.55275">
        <ele>1239.117872</ele>
        <time>2013-02-18T13:47:36Z</time>
      </trkpt>
      <trkpt lat="45.42712" lon="6.55279">
        <ele>1240.120334</ele>
        <time>2013-02-18T13:47:41Z</time>
      </trkpt>
      <trkpt lat="45.42714" lon="6.55288">
        <ele>1237.099598</ele>
        <time>2013-02-18T13:47:46Z</time>
      </trkpt>
      <trkpt lat="45.42713" lon="6.55295">
        <ele>1234.760971</ele>
        <time>2013-02-18T13:47:51Z</time>
      </trkpt>
      <trkpt lat="45.42712" lon="6.55299">
        <ele>1235.698479</ele>
        <time>2013-02-18T13:47:56Z</time>
      </trkpt>
      <trkpt lat="45.42713" lon="6.55302">
        <ele>1233.751845</ele>
        <time>2013-02-18T13:48:02Z</time>
      </trkpt>
      <trkpt lat="45.42715" lon="6.55305">
        <ele>1234.639518</ele>
        <time>2013-02-18T13:48:08Z</time>
      </trkpt>
      <trkpt lat="45.42715" lon="6.55307">
        <ele>1236.921653</ele>
        <time>2013-02-18T13:48:15Z</time>
      </trkpt>
      <trkpt lat="45.42718" lon="6.55308">
        <ele>1238.441593</ele>
        <time>2013-02-18T13:48:20Z</time>
      </trkpt>
      <trkpt lat="45.42726" lon="6.55313">
        <ele>1239.485017</ele>
        <time>2013-02-18T13:48:25Z</time>
      </trkpt>
      <trkpt lat="45.42732" lon="6.55318">
        <ele>1238.391373</ele>
        <time>2013-02-18T13:48:30Z</time>
      </trkpt>
      <trkpt lat="45.42737" lon="6.5532">
        <ele>1235.712825</ele>
        <time>2013-02-18T13:48:35Z</time>
      </trkpt>
      <trkpt lat="45.42741" lon="6.55326">
        <ele>1232.562207</ele>
        <time>2013-02-18T13:48:40Z</time>
      </trkpt>
      <trkpt lat="45.4275" lon="6.5533">
        <ele>1227.190001</ele>
        <time>2013-02-18T13:48:45Z</time>
      </trkpt>
      <trkpt lat="45.42754" lon="6.55336">
        <ele>1219.810635</ele>
        <time>2013-02-18T13:48:50Z</time>
      </trkpt>
      <trkpt lat="45.42755" lon="6.55343">
        <ele>1215.997495</ele>
        <time>2013-02-18T13:48:55Z</time>
      </trkpt>
      <trkpt lat="45.42757" lon="6.55351">
        <ele>1217.220725</ele>
        <time>2013-02-18T13:49:00Z</time>
      </trkpt>
      <trkpt lat="45.4276" lon="6.55361">
        <ele>1217.114474</ele>
        <time>2013-02-18T13:49:05Z</time>
      </trkpt>
      <trkpt lat="45.42762" lon="6.55368">
        <ele>1214.013715</ele>
        <time>2013-02-18T13:49:10Z</time>
      </trkpt>
      <trkpt lat="45.42766" lon="6.55373">
        <ele>1213.682319</ele>
        <time>2013-02-18T13:49:15Z</time>
      </trkpt>
      <trkpt lat="45.42771" lon="6.55379">
        <ele>1210.546898</ele>
        <time>2013-02-18T13:49:20Z</time>
      </trkpt>
      <trkpt lat="45.42776" lon="6.55387">
        <ele>1206.779223</ele>
        <time>2013-02-18T13:49:25Z</time>
      </trkpt>
      <trkpt lat="45.42779" lon="6.55395">
        <ele>1205.183322</ele>
        <time>2013-02-18T13:49:30Z</time>
      </trkpt>
      <trkpt lat="45.42782" lon="6.55399">
        <ele>1204.059484</ele>
        <time>2013-02-18T13:49:35Z</time>
      </trkpt>
      <trkpt lat="45.42784" lon="6.55404">
        <ele>1205.819782</ele>
        <time>2013-02-18T13:49:40Z</time>
      </trkpt>
      <trkpt lat="45.42786" lon="6.55406">
        <ele>1208.036988</ele>
        <time>2013-02-18T13:49:45Z</time>
      </trkpt>
      <trkpt lat="45.42788" lon="6.55407">
        <ele>1205.313066</ele>
        <time>2013-02-18T13:50:00Z</time>
      </trkpt>
      <trkpt lat="45.42792" lon="6.55416">
        <ele>1204.444705</ele>
        <time>2013-02-18T13:50:05Z</time>
      </trkpt>
      <trkpt lat="45.42795" lon="6.55421">
        <ele>1204.09821</ele>
        <time>2013-02-18T13:50:10Z</time>
      </trkpt>
      <trkpt lat="45.42798" lon="6.55428">
        <ele>1203.134609</ele>
        <time>2013-02-18T13:50:15Z</time>
      </trkpt>
      <trkpt lat="45.428" lon="6.55431">
        <ele>1202.612757</ele>
        <time>2013-02-18T13:50:20Z</time>
      </trkpt>
      <trkpt lat="45.42804" lon="6.55438">
        <ele>1202.361535</ele>
        <time>2013-02-18T13:50:25Z</time>
      </trkpt>
      <trkpt lat="45.42807" lon="6.55443">
        <ele>1202.712275</ele>
        <time>2013-02-18T13:50:30Z</time>
      </trkpt>
      <trkpt lat="45.4281" lon="6.55448">
        <ele>1202.285693</ele>
        <time>2013-02-18T13:50:35Z</time>
      </trkpt>
      <trkpt lat="45.42812" lon="6.55452">
        <ele>1202.55633</ele>
        <time>2013-02-18T13:50:40Z</time>
      </trkpt>
      <trkpt lat="45.42815" lon="6.55459">
        <ele>1201.59276</ele>
        <time>2013-02-18T13:50:45Z</time>
      </trkpt>
      <trkpt lat="45.42819" lon="6.55466">
        <ele>1201.341568</ele>
        <time>2013-02-18T13:50:50Z</time>
      </trkpt>
      <trkpt lat="45.42822" lon="6.55473">
        <ele>1199.66564</ele>
        <time>2013-02-18T13:50:55Z</time>
      </trkpt>
      <trkpt lat="45.42825" lon="6.55476">
        <ele>1199.158967</ele>
        <time>2013-02-18T13:51:00Z</time>
      </trkpt>
      <trkpt lat="45.42829" lon="6.55472">
        <ele>1198.251733</ele>
        <time>2013-02-18T13:51:05Z</time>
      </trkpt>
      <trkpt lat="45.42831" lon="6.5547">
        <ele>1199.531414</ele>
        <time>2013-02-18T13:51:12Z</time>
      </trkpt>
      <trkpt lat="45.42833" lon="6.55467">
        <ele>1198.689138</ele>
        <time>2013-02-18T13:51:18Z</time>
      </trkpt>
      <trkpt lat="45.42836" lon="6.55467">
        <ele>1197.229761</ele>
        <time>2013-02-18T13:51:24Z</time>
      </trkpt>
      <trkpt lat="45.42837" lon="6.55472">
        <ele>1197.565369</ele>
        <time>2013-02-18T13:51:29Z</time>
      </trkpt>
      <trkpt lat="45.42839" lon="6.55477">
        <ele>1196.506554</ele>
        <time>2013-02-18T13:51:34Z</time>
      </trkpt>
      <trkpt lat="45.4284" lon="6.5548">
        <ele>1193.862769</ele>
        <time>2013-02-18T13:51:40Z</time>
      </trkpt>
      <trkpt lat="45.42841" lon="6.55483">
        <ele>1191.916198</ele>
        <time>2013-02-18T13:51:49Z</time>
      </trkpt>
      <trkpt lat="45.4284" lon="6.55486">
        <ele>1189.954464</ele>
        <time>2013-02-18T13:51:56Z</time>
      </trkpt>
      <trkpt lat="45.42838" lon="6.55491">
        <ele>1188.850172</ele>
        <time>2013-02-18T13:52:01Z</time>
      </trkpt>
      <trkpt lat="45.4284" lon="6.55494">
        <ele>1189.737937</ele>
        <time>2013-02-18T13:52:15Z</time>
      </trkpt>
      <trkpt lat="45.42845" lon="6.55496">
        <ele>1189.166328</ele>
        <time>2013-02-18T13:52:20Z</time>
      </trkpt>
      <trkpt lat="45.42848" lon="6.55497">
        <ele>1188.579559</ele>
        <time>2013-02-18T13:52:25Z</time>
      </trkpt>
      <trkpt lat="45.4285" lon="6.55498">
        <ele>1186.487927</ele>
        <time>2013-02-18T13:52:30Z</time>
      </trkpt>
      <trkpt lat="45.42853" lon="6.55498">
        <ele>1186.533422</ele>
        <time>2013-02-18T13:52:49Z</time>
      </trkpt>
      <trkpt lat="45.42857" lon="6.555">
        <ele>1185.249449</ele>
        <time>2013-02-18T13:52:54Z</time>
      </trkpt>
      <trkpt lat="45.42859" lon="6.55501">
        <ele>1187.466692</ele>
        <time>2013-02-18T13:53:02Z</time>
      </trkpt>
      <trkpt lat="45.42862" lon="6.55504">
        <ele>1185.550463</ele>
        <time>2013-02-18T13:53:07Z</time>
      </trkpt>
      <trkpt lat="45.42869" lon="6.5551">
        <ele>1185.961938</ele>
        <time>2013-02-18T13:53:12Z</time>
      </trkpt>
      <trkpt lat="45.42877" lon="6.55513">
        <ele>1184.026285</ele>
        <time>2013-02-18T13:53:17Z</time>
      </trkpt>
      <trkpt lat="45.42883" lon="6.55515">
        <ele>1180.650713</ele>
        <time>2013-02-18T13:53:22Z</time>
      </trkpt>
      <trkpt lat="45.4289" lon="6.5552">
        <ele>1180.269727</ele>
        <time>2013-02-18T13:53:27Z</time>
      </trkpt>
      <trkpt lat="45.42895" lon="6.55527">
        <ele>1180.03381</ele>
        <time>2013-02-18T13:53:32Z</time>
      </trkpt>
      <trkpt lat="45.42901" lon="6.55536">
        <ele>1176.361649</ele>
        <time>2013-02-18T13:53:37Z</time>
      </trkpt>
      <trkpt lat="45.42905" lon="6.55539">
        <ele>1175.157836</ele>
        <time>2013-02-18T13:53:42Z</time>
      </trkpt>
      <trkpt lat="45.42908" lon="6.55542">
        <ele>1175.363612</ele>
        <time>2013-02-18T13:53:47Z</time>
      </trkpt>
      <trkpt lat="45.42919" lon="6.55549">
        <ele>1175.188457</ele>
        <time>2013-02-18T13:53:52Z</time>
      </trkpt>
      <trkpt lat="45.42928" lon="6.55556">
        <ele>1174.918022</ele>
        <time>2013-02-18T13:53:57Z</time>
      </trkpt>
      <trkpt lat="45.42934" lon="6.55563">
        <ele>1173.984971</ele>
        <time>2013-02-18T13:54:02Z</time>
      </trkpt>
      <trkpt lat="45.42938" lon="6.55565">
        <ele>1177.72233</ele>
        <time>2013-02-18T13:54:07Z</time>
      </trkpt>
      <trkpt lat="45.42945" lon="6.5557">
        <ele>1181.570193</ele>
        <time>2013-02-18T13:54:12Z</time>
      </trkpt>
      <trkpt lat="45.42955" lon="6.55577">
        <ele>1180.682744</ele>
        <time>2013-02-18T13:54:17Z</time>
      </trkpt>
      <trkpt lat="45.42962" lon="6.55586">
        <ele>1181.25464</ele>
        <time>2013-02-18T13:54:22Z</time>
      </trkpt>
      <trkpt lat="45.4297" lon="6.55591">
        <ele>1176.660231</ele>
        <time>2013-02-18T13:54:27Z</time>
      </trkpt>
      <trkpt lat="45.42981" lon="6.55595">
        <ele>1172.016109</ele>
        <time>2013-02-18T13:54:32Z</time>
      </trkpt>
      <trkpt lat="45.42988" lon="6.55596">
        <ele>1169.985327</ele>
        <time>2013-02-18T13:54:37Z</time>
      </trkpt>
      <trkpt lat="45.42991" lon="6.55597">
        <ele>1170.72812</ele>
        <time>2013-02-18T13:54:42Z</time>
      </trkpt>
      <trkpt lat="45.42991" lon="6.55601">
        <ele>1170.968496</ele>
        <time>2013-02-18T13:54:57Z</time>
      </trkpt>
    </trkseg>
  </trk>
</gpx>